Observation data for Kent I10-I20 Split on 02/14/2020      Previous  Date  Next       Current Mesonet Observations  Soil Data  Daily Summary Page  Observations in Plain Language
KKE1 140600Z 27002KT 03/M01 A3018 RMK A01 T00251010  RH  078%=      5-min Rain = 0
KKE1 140601Z 27002KT 03/M01 A3018 RMK A01 T00261009  RH  078%=      5-min Rain = 0
KKE1 140602Z 26002KT 03/M01 A3018 RMK A01 T00261009  RH  077%=      5-min Rain = 0
KKE1 140603Z 26002KT 03/M01 A3018 RMK A01 T00261010  RH  077%=      5-min Rain = 0
KKE1 140604Z 25002KT 03/M01 A3018 RMK A01 T00261009  RH  077%=      5-min Rain = 0
KKE1 140605Z 25002KT 03/M01 A3018 RMK A01 T00271009  RH  077%=      5-min Rain = 0
KKE1 140606Z 21002KT 03/M01 A3018 RMK A01 T00271009  RH  077%=      5-min Rain = 0
KKE1 140607Z 27001KT 03/M01 A3018 RMK A01 T00281009  RH  077%=      5-min Rain = 0
KKE1 140608Z 27003KT 03/M01 A3018 RMK A01 T00301007  RH  076%=      5-min Rain = 0
KKE1 140609Z 28002KT 03/M01 A3018 RMK A01 T00301008  RH  076%=      5-min Rain = 0
KKE1 140610Z 28002KT 03/M01 A3018 RMK A01 T00291008  RH  076%=      5-min Rain = 0
KKE1 140611Z 26003KT 03/M01 A3019 RMK A01 T00281009  RH  077%=      5-min Rain = 0
KKE1 140612Z 25003KT 03/M01 A3019 RMK A01 T00281009  RH  077%=      5-min Rain = 0
KKE1 140613Z 25003KT 03/M01 A3019 RMK A01 T00281009  RH  077%=      5-min Rain = 0
KKE1 140614Z 25003KT 03/M01 A3019 RMK A01 T00281009  RH  077%=      5-min Rain = 0
KKE1 140615Z 25003KT 03/M01 A3019 RMK A01 T00291009  RH  076%=      5-min Rain = 0
KKE1 140616Z 25003KT 03/M01 A3018 RMK A01 T00291009  RH  076%=      5-min Rain = 0
KKE1 140617Z 25003KT 03/M01 A3018 RMK A01 T00291009  RH  076%=      5-min Rain = 0
KKE1 140618Z 25003KT 03/M01 A3018 RMK A01 T00291009  RH  076%=      5-min Rain = 0
KKE1 140619Z 25003KT 03/M01 A3018 RMK A01 T00291009  RH  076%=      5-min Rain = 0
KKE1 140620Z 26003KT 03/M01 A3018 RMK A01 T00281008  RH  077%=      5-min Rain = 0
KKE1 140621Z 26002KT 03/M01 A3018 RMK A01 T00281008  RH  077%=      5-min Rain = 0
KKE1 140622Z 26001KT 03/M01 A3018 RMK A01 T00281008  RH  077%=      5-min Rain = 0
KKE1 140623Z 26001KT 03/M01 A3018 RMK A01 T00281008  RH  077%=      5-min Rain = 0
KKE1 140624Z 23000KT 03/M01 A3018 RMK A01 T00291007  RH  077%=      5-min Rain = 0
KKE1 140625Z 21003KT 03/M01 A3019 RMK A01 T00301008  RH  076%=      5-min Rain = 0
KKE1 140626Z 22004KT 03/M01 A3018 RMK A01 T00311007  RH  076%=      5-min Rain = 0
KKE1 140627Z 21004KT 03/M01 A3018 RMK A01 T00331007  RH  075%=      5-min Rain = 0
KKE1 140628Z 23004KT 03/M01 A3018 RMK A01 T00341007  RH  074%=      5-min Rain = 0
KKE1 140629Z 23003KT 04/M01 A3018 RMK A01 T00351007  RH  074%=      5-min Rain = 0
KKE1 140630Z 24003KT 04/M01 A3018 RMK A01 T00361007  RH  074%=      5-min Rain = 0
KKE1 140631Z 23004KT 04/M01 A3019 RMK A01 T00361007  RH  073%=      5-min Rain = 0
KKE1 140632Z 23004KT 04/M01 A3019 RMK A01 T00361008  RH  073%=      5-min Rain = 0
KKE1 140633Z 24005KT 04/M01 A3019 RMK A01 T00371008  RH  072%=      5-min Rain = 0
KKE1 140634Z 25005KT 04/M01 A3019 RMK A01 T00381008  RH  072%=      5-min Rain = 0
KKE1 140635Z 25004KT 04/M01 A3019 RMK A01 T00381007  RH  073%=      5-min Rain = 0
KKE1 140636Z 26004KT 04/M01 A3019 RMK A01 T00361007  RH  074%=      5-min Rain = 0
KKE1 140637Z 27003KT 03/M01 A3019 RMK A01 T00331007  RH  075%=      5-min Rain = 0
KKE1 140638Z 28004KT 03/M01 A3019 RMK A01 T00311008  RH  076%=      5-min Rain = 0
KKE1 140639Z 29004KT 03/M01 A3019 RMK A01 T00281009  RH  077%=      5-min Rain = 0
KKE1 140640Z 29004KT 03/M01 A3019 RMK A01 T00251009  RH  078%=      5-min Rain = 0
KKE1 140641Z 29004KT 02/M01 A3019 RMK A01 T00231010  RH  079%=      5-min Rain = 0
KKE1 140642Z 30003KT 02/M01 A3019 RMK A01 T00221009  RH  080%=      5-min Rain = 0
KKE1 140643Z 30003KT 02/M01 A3019 RMK A01 T00211008  RH  081%=      5-min Rain = 0
KKE1 140644Z 29003KT 02/M01 A3019 RMK A01 T00221007  RH  081%=      5-min Rain = 0
KKE1 140645Z 29002KT 02/M01 A3019 RMK A01 T00221007  RH  081%=      5-min Rain = 0
KKE1 140646Z 28003KT 02/M01 A3019 RMK A01 T00221006  RH  081%=      5-min Rain = 0
KKE1 140647Z 27003KT 02/M01 A3019 RMK A01 T00231006  RH  082%=      5-min Rain = 0
KKE1 140648Z 28003KT 02/M01 A3019 RMK A01 T00221005  RH  082%=      5-min Rain = 0
KKE1 140649Z 28003KT 02/M01 A3019 RMK A01 T00221005  RH  082%=      5-min Rain = 0
KKE1 140650Z 28004KT 02/M01 A3019 RMK A01 T00211006  RH  082%=      5-min Rain = 0
KKE1 140651Z 30004KT 02/M01 A3019 RMK A01 T00211006  RH  083%=      5-min Rain = 0
KKE1 140652Z 30003KT 02/M01 A3019 RMK A01 T00201006  RH  083%=      5-min Rain = 0
KKE1 140653Z 30003KT 02/M01 A3019 RMK A01 T00211006  RH  083%=      5-min Rain = 0
KKE1 140654Z 30002KT 02/M01 A3019 RMK A01 T00221006  RH  082%=      5-min Rain = 0
KKE1 140655Z 30001KT 02/M01 A3019 RMK A01 T00241005  RH  081%=      5-min Rain = 0
KKE1 140656Z 30001KT 02/M01 A3019 RMK A01 T00241006  RH  081%=      5-min Rain = 0
KKE1 140657Z 29001KT 03/M01 A3019 RMK A01 T00251006  RH  080%=      5-min Rain = 0
KKE1 140658Z 28002KT 03/M01 A3019 RMK A01 T00261005  RH  080%=      5-min Rain = 0
KKE1 140659Z 29003KT 03/M01 A3019 RMK A01 T00271005  RH  079%=      5-min Rain = 0
KKE1 140700Z 29003KT 03/M01 A3019 RMK A01 T00271005  RH  079%=      5-min Rain = 0
KKE1 140701Z 29003KT 03/M01 A3019 RMK A01 T00281005  RH  079%=      5-min Rain = 0
KKE1 140702Z 28003KT 03/M00 A3019 RMK A01 T00311003  RH  078%=      5-min Rain = 0
KKE1 140703Z 27003KT 03/M00 A3019 RMK A01 T00321004  RH  077%=      5-min Rain = 0
KKE1 140704Z 27002KT 03/M01 A3019 RMK A01 T00321005  RH  077%=      5-min Rain = 0
KKE1 140705Z 26002KT 03/M01 A3019 RMK A01 T00301005  RH  077%=      5-min Rain = 0
KKE1 140706Z 23003KT 03/M01 A3019 RMK A01 T00291005  RH  078%=      5-min Rain = 0
KKE1 140707Z 22004KT 03/M01 A3019 RMK A01 T00291005  RH  078%=      5-min Rain = 0
KKE1 140708Z 21005KT 03/M01 A3019 RMK A01 T00281006  RH  079%=      5-min Rain = 0
KKE1 140709Z 22004KT 03/M01 A3019 RMK A01 T00251007  RH  079%=      5-min Rain = 0
KKE1 140710Z 21004KT 02/M01 A3019 RMK A01 T00241007  RH  080%=      5-min Rain = 0
KKE1 140711Z 21004KT 02/M01 A3019 RMK A01 T00231007  RH  081%=      5-min Rain = 0
KKE1 140712Z 23003KT 02/M01 A3019 RMK A01 T00221007  RH  081%=      5-min Rain = 0
KKE1 140713Z 22004KT 02/M01 A3019 RMK A01 T00221006  RH  081%=      5-min Rain = 0
KKE1 140714Z 22004KT 02/M01 A3019 RMK A01 T00231006  RH  081%=      5-min Rain = 0
KKE1 140715Z 22004KT 03/M01 A3019 RMK A01 T00251006  RH  080%=      5-min Rain = 0
KKE1 140716Z 22004KT 03/M01 A3019 RMK A01 T00261006  RH  079%=      5-min Rain = 0
KKE1 140717Z 22005KT 03/M01 A3019 RMK A01 T00261008  RH  079%=      5-min Rain = 0
KKE1 140718Z 22004KT 03/M01 A3019 RMK A01 T00261008  RH  078%=      5-min Rain = 0
KKE1 140719Z 22003KT 03/M01 A3019 RMK A01 T00261008  RH  078%=      5-min Rain = 0
KKE1 140720Z 22004KT 03/M01 A3019 RMK A01 T00251008  RH  078%=      5-min Rain = 0
KKE1 140721Z 22003KT 03/M01 A3019 RMK A01 T00251008  RH  079%=      5-min Rain = 0
KKE1 140722Z 22004KT 03/M01 A3019 RMK A01 T00251008  RH  079%=      5-min Rain = 0
KKE1 140723Z 22004KT 03/M01 A3019 RMK A01 T00251008  RH  079%=      5-min Rain = 0
KKE1 140724Z 23004KT 03/M01 A3019 RMK A01 T00251008  RH  079%=      5-min Rain = 0
KKE1 140725Z 24003KT 02/M01 A3019 RMK A01 T00241009  RH  079%=      5-min Rain = 0
KKE1 140726Z 24003KT 02/M01 A3019 RMK A01 T00211012  RH  079%=      5-min Rain = 0
KKE1 140727Z 24002KT 02/M01 A3019 RMK A01 T00191012  RH  080%=      5-min Rain = 0
KKE1 140728Z 24003KT 02/M01 A3019 RMK A01 T00181010  RH  082%=      5-min Rain = 0
KKE1 140729Z 24003KT 02/M01 A3019 RMK A01 T00191008  RH  082%=      5-min Rain = 0
KKE1 140730Z 23002KT 02/M01 A3019 RMK A01 T00191009  RH  081%=      5-min Rain = 0
KKE1 140731Z 22002KT 02/M01 A3019 RMK A01 T00181010  RH  081%=      5-min Rain = 0
KKE1 140732Z 21002KT 02/M01 A3019 RMK A01 T00181009  RH  082%=      5-min Rain = 0
KKE1 140733Z 21003KT 02/M01 A3019 RMK A01 T00191008  RH  082%=      5-min Rain = 0
KKE1 140734Z 21003KT 02/M01 A3019 RMK A01 T00201008  RH  082%=      5-min Rain = 0
KKE1 140735Z 22003KT 02/M01 A3019 RMK A01 T00201008  RH  082%=      5-min Rain = 0
KKE1 140736Z 22003KT 02/M01 A3019 RMK A01 T00211007  RH  081%=      5-min Rain = 0
KKE1 140737Z 21004KT 02/M01 A3019 RMK A01 T00221006  RH  082%=      5-min Rain = 0
KKE1 140738Z 20004KT 02/M01 A3019 RMK A01 T00221007  RH  081%=      5-min Rain = 0
KKE1 140739Z 19003KT 02/M01 A3019 RMK A01 T00231007  RH  081%=      5-min Rain = 0
KKE1 140740Z 19003KT 02/M01 A3019 RMK A01 T00231007  RH  080%=      5-min Rain = 0
KKE1 140741Z 20003KT 02/M01 A3019 RMK A01 T00241007  RH  080%=      5-min Rain = 0
KKE1 140742Z 19004KT 02/M01 A3019 RMK A01 T00241007  RH  080%=      5-min Rain = 0
KKE1 140743Z 20004KT 02/M01 A3019 RMK A01 T00241007  RH  080%=      5-min Rain = 0
KKE1 140744Z 20004KT 02/M01 A3019 RMK A01 T00241007  RH  080%=      5-min Rain = 0
KKE1 140745Z 20004KT 02/M01 A3019 RMK A01 T00241007  RH  080%=      5-min Rain = 0
KKE1 140746Z 20004KT 02/M01 A3019 RMK A01 T00231007  RH  081%=      5-min Rain = 0
KKE1 140747Z 20004KT 02/M01 A3019 RMK A01 T00231007  RH  081%=      5-min Rain = 0
KKE1 140748Z 20004KT 02/M01 A3019 RMK A01 T00231007  RH  081%=      5-min Rain = 0
KKE1 140749Z 20004KT 02/M01 A3019 RMK A01 T00221007  RH  081%=      5-min Rain = 0
KKE1 140750Z 21003KT 02/M01 A3019 RMK A01 T00221007  RH  081%=      5-min Rain = 0
KKE1 140751Z 22002KT 02/M01 A3019 RMK A01 T00231007  RH  080%=      5-min Rain = 0
KKE1 140752Z 29001KT 02/M01 A3019 RMK A01 T00191013  RH  079%=      5-min Rain = 0
KKE1 140753Z 31002KT 02/M02 A3019 RMK A01 T00151015  RH  081%=      5-min Rain = 0
KKE1 140754Z 32001KT 01/M01 A302 RMK A01 T00131013  RH  083%=      5-min Rain = 0
KKE1 140755Z 33001KT 01/M01 A3019 RMK A01 T00131011  RH  084%=      5-min Rain = 0
KKE1 140756Z 00000KT 01/M01 A3019 RMK A01 T00131010  RH  085%=      5-min Rain = 0
KKE1 140757Z 24000KT 01/M01 A3019 RMK A01 T00131010  RH  085%=      5-min Rain = 0
KKE1 140758Z 22001KT 01/M01 A3019 RMK A01 T00121010  RH  085%=      5-min Rain = 0
KKE1 140759Z 21002KT 01/M01 A3019 RMK A01 T00121010  RH  085%=      5-min Rain = 0
KKE1 140800Z 20002KT 01/M01 A302 RMK A01 T00131009  RH  085%=      5-min Rain = 0
KKE1 140801Z 20001KT 02/M01 A302 RMK A01 T00151008  RH  085%=      5-min Rain = 0
KKE1 140802Z 21002KT 02/M01 A302 RMK A01 T00161008  RH  084%=      5-min Rain = 0
KKE1 140803Z 21003KT 02/M01 A3019 RMK A01 T00171009  RH  083%=      5-min Rain = 0
KKE1 140804Z 21003KT 02/M01 A3019 RMK A01 T00171009  RH  083%=      5-min Rain = 0
KKE1 140805Z 22003KT 02/M01 A3019 RMK A01 T00161010  RH  083%=      5-min Rain = 0
KKE1 140806Z 22003KT 02/M01 A302 RMK A01 T00151010  RH  084%=      5-min Rain = 0
KKE1 140807Z 24002KT 01/M01 A3019 RMK A01 T00141009  RH  084%=      5-min Rain = 0
KKE1 140808Z 23002KT 02/M01 A3019 RMK A01 T00151009  RH  084%=      5-min Rain = 0
KKE1 140809Z 24002KT 02/M01 A3019 RMK A01 T00161009  RH  084%=      5-min Rain = 0
KKE1 140810Z 24003KT 02/M01 A3019 RMK A01 T00161009  RH  083%=      5-min Rain = 0
KKE1 140811Z 23003KT 02/M01 A3019 RMK A01 T00161009  RH  083%=      5-min Rain = 0
KKE1 140812Z 22003KT 02/M01 A3019 RMK A01 T00161009  RH  083%=      5-min Rain = 0
KKE1 140813Z 23004KT 02/M01 A3019 RMK A01 T00161009  RH  083%=      5-min Rain = 0
KKE1 140814Z 22004KT 02/M01 A3019 RMK A01 T00161009  RH  083%=      5-min Rain = 0
KKE1 140815Z 22003KT 02/M01 A3019 RMK A01 T00161009  RH  083%=      5-min Rain = 0
KKE1 140816Z 21004KT 02/M01 A3019 RMK A01 T00161009  RH  083%=      5-min Rain = 0
KKE1 140817Z 22003KT 02/M01 A302 RMK A01 T00161010  RH  083%=      5-min Rain = 0
KKE1 140818Z 22003KT 02/M01 A302 RMK A01 T00161010  RH  083%=      5-min Rain = 0
KKE1 140819Z 22003KT 02/M01 A302 RMK A01 T00161011  RH  082%=      5-min Rain = 0
KKE1 140820Z 22004KT 02/M01 A302 RMK A01 T00171010  RH  082%=      5-min Rain = 0
KKE1 140821Z 23005KT 02/M01 A302 RMK A01 T00171011  RH  082%=      5-min Rain = 0
KKE1 140822Z 23004KT 02/M01 A302 RMK A01 T00171010  RH  082%=      5-min Rain = 0
KKE1 140823Z 23004KT 02/M01 A302 RMK A01 T00171011  RH  082%=      5-min Rain = 0
KKE1 140824Z 22004KT 02/M01 A302 RMK A01 T00171011  RH  082%=      5-min Rain = 0
KKE1 140825Z 22004KT 02/M01 A302 RMK A01 T00181010  RH  082%=      5-min Rain = 0
KKE1 140826Z 23003KT 02/M01 A302 RMK A01 T00201010  RH  081%=      5-min Rain = 0
KKE1 140827Z 24003KT 02/M01 A302 RMK A01 T00201011  RH  080%=      5-min Rain = 0
KKE1 140828Z 24002KT 02/M01 A302 RMK A01 T00171013  RH  080%=      5-min Rain = 0
KKE1 140829Z 25002KT 01/M02 A302 RMK A01 T00141016  RH  080%=      5-min Rain = 0
KKE1 140830Z 24002KT 01/M02 A302 RMK A01 T00111017  RH  082%=      5-min Rain = 0
KKE1 140831Z 25002KT 01/M02 A302 RMK A01 T00101018  RH  082%=      5-min Rain = 0
KKE1 140832Z 29002KT 01/M02 A302 RMK A01 T00081017  RH  083%=      5-min Rain = 0
KKE1 140833Z 28002KT 01/M02 A302 RMK A01 T00071016  RH  085%=      5-min Rain = 0
KKE1 140834Z 30002KT 01/M02 A302 RMK A01 T00061015  RH  085%=      5-min Rain = 0
KKE1 140835Z 31002KT 01/M01 A302 RMK A01 T00061014  RH  086%=      5-min Rain = 0
KKE1 140836Z 29001KT 01/M01 A302 RMK A01 T00061014  RH  086%=      5-min Rain = 0
KKE1 140837Z 28001KT 01/M01 A302 RMK A01 T00061013  RH  087%=      5-min Rain = 0
KKE1 140838Z 28001KT 01/M01 A302 RMK A01 T00061013  RH  087%=      5-min Rain = 0
KKE1 140839Z 25001KT 01/M01 A302 RMK A01 T00061014  RH  087%=      5-min Rain = 0
KKE1 140840Z 24001KT 01/M01 A302 RMK A01 T00061013  RH  087%=      5-min Rain = 0
KKE1 140841Z 25002KT 01/M01 A302 RMK A01 T00071012  RH  087%=      5-min Rain = 0
KKE1 140842Z 25004KT 01/M01 A302 RMK A01 T00091010  RH  087%=      5-min Rain = 0
KKE1 140843Z 25004KT 01/M01 A302 RMK A01 T00131008  RH  086%=      5-min Rain = 0
KKE1 140844Z 25004KT 02/M01 A302 RMK A01 T00161009  RH  083%=      5-min Rain = 0
KKE1 140845Z 25003KT 02/M01 A302 RMK A01 T00171009  RH  083%=      5-min Rain = 0
KKE1 140846Z 24002KT 02/M01 A302 RMK A01 T00171010  RH  082%=      5-min Rain = 0
KKE1 140847Z 23001KT 02/M01 A302 RMK A01 T00161013  RH  082%=      5-min Rain = 0
KKE1 140848Z 25002KT 01/M01 A302 RMK A01 T00141013  RH  082%=      5-min Rain = 0
KKE1 140849Z 27002KT 01/M01 A3019 RMK A01 T00131013  RH  083%=      5-min Rain = 0
KKE1 140850Z 26002KT 01/M01 A3019 RMK A01 T00121014  RH  083%=      5-min Rain = 0
KKE1 140851Z 27002KT 01/M02 A3019 RMK A01 T00111015  RH  083%=      5-min Rain = 0
KKE1 140852Z 27002KT 01/M01 A302 RMK A01 T00101014  RH  084%=      5-min Rain = 0
KKE1 140853Z 26002KT 01/M01 A302 RMK A01 T00111012  RH  084%=      5-min Rain = 0
KKE1 140854Z 25002KT 01/M01 A302 RMK A01 T00111013  RH  084%=      5-min Rain = 0
KKE1 140855Z 24002KT 01/M01 A302 RMK A01 T00111013  RH  084%=      5-min Rain = 0
KKE1 140856Z 25003KT 01/M01 A302 RMK A01 T00121012  RH  084%=      5-min Rain = 0
KKE1 140857Z 25003KT 01/M01 A302 RMK A01 T00141010  RH  084%=      5-min Rain = 0
KKE1 140858Z 24003KT 02/M01 A302 RMK A01 T00161010  RH  083%=      5-min Rain = 0
KKE1 140859Z 24004KT 02/M01 A3019 RMK A01 T00171011  RH  082%=      5-min Rain = 0
KKE1 140900Z 23004KT 02/M01 A3019 RMK A01 T00181011  RH  082%=      5-min Rain = 0
KKE1 140901Z 23004KT 02/M01 A3019 RMK A01 T00191011  RH  081%=      5-min Rain = 0
KKE1 140902Z 23004KT 02/M01 A3019 RMK A01 T00191011  RH  081%=      5-min Rain = 0
KKE1 140903Z 22004KT 02/M01 A3019 RMK A01 T00181012  RH  081%=      5-min Rain = 0
KKE1 140904Z 22004KT 02/M01 A3019 RMK A01 T00171011  RH  081%=      5-min Rain = 0
KKE1 140905Z 22004KT 02/M01 A3019 RMK A01 T00171011  RH  082%=      5-min Rain = 0
KKE1 140906Z 22004KT 02/M01 A3019 RMK A01 T00171011  RH  082%=      5-min Rain = 0
KKE1 140907Z 23005KT 02/M01 A3019 RMK A01 T00171010  RH  082%=      5-min Rain = 0
KKE1 140908Z 24005KT 02/M01 A3019 RMK A01 T00191010  RH  082%=      5-min Rain = 0
KKE1 140909Z 24004KT 02/M01 A302 RMK A01 T00201010  RH  081%=      5-min Rain = 0
KKE1 140910Z 24004KT 02/M01 A302 RMK A01 T00191012  RH  080%=      5-min Rain = 0
KKE1 140911Z 26003KT 02/M01 A302 RMK A01 T00161014  RH  080%=      5-min Rain = 0
KKE1 140912Z 27003KT 01/M02 A302 RMK A01 T00131016  RH  081%=      5-min Rain = 0
KKE1 140913Z 27003KT 01/M02 A302 RMK A01 T00111017  RH  082%=      5-min Rain = 0
KKE1 140914Z 26002KT 01/M02 A302 RMK A01 T00101016  RH  083%=      5-min Rain = 0
KKE1 140915Z 30002KT 01/M02 A302 RMK A01 T00091016  RH  084%=      5-min Rain = 0
KKE1 140916Z 28002KT 01/M02 A302 RMK A01 T00081016  RH  084%=      5-min Rain = 0
KKE1 140917Z 28002KT 01/M02 A302 RMK A01 T00071016  RH  084%=      5-min Rain = 0
KKE1 140918Z 27002KT 01/M02 A302 RMK A01 T00071016  RH  084%=      5-min Rain = 0
KKE1 140919Z 25002KT 01/M02 A302 RMK A01 T00061016  RH  085%=      5-min Rain = 0
KKE1 140920Z 26003KT 01/M02 A302 RMK A01 T00061015  RH  085%=      5-min Rain = 0
KKE1 140921Z 27001KT 01/M02 A302 RMK A01 T00061015  RH  086%=      5-min Rain = 0
KKE1 140922Z 30002KT 01/M02 A302 RMK A01 T00061015  RH  086%=      5-min Rain = 0
KKE1 140923Z 27002KT 01/M02 A302 RMK A01 T00061015  RH  086%=      5-min Rain = 0
KKE1 140924Z 26001KT 01/M02 A302 RMK A01 T00061015  RH  086%=      5-min Rain = 0
KKE1 140925Z 27002KT 01/M02 A302 RMK A01 T00051015  RH  086%=      5-min Rain = 0
KKE1 140926Z 26002KT 01/M02 A302 RMK A01 T00051015  RH  086%=      5-min Rain = 0
KKE1 140927Z 27002KT 01/M01 A302 RMK A01 T00061014  RH  087%=      5-min Rain = 0
KKE1 140928Z 28002KT 01/M01 A302 RMK A01 T00071013  RH  087%=      5-min Rain = 0
KKE1 140929Z 28003KT 01/M01 A302 RMK A01 T00081013  RH  086%=      5-min Rain = 0
KKE1 140930Z 27002KT 01/M01 A302 RMK A01 T00091012  RH  086%=      5-min Rain = 0
KKE1 140931Z 26003KT 01/M01 A302 RMK A01 T00101012  RH  085%=      5-min Rain = 0
KKE1 140932Z 26003KT 01/M01 A302 RMK A01 T00121012  RH  084%=      5-min Rain = 0
KKE1 140933Z 27003KT 02/M01 A302 RMK A01 T00151011  RH  083%=      5-min Rain = 0
KKE1 140934Z 28003KT 02/M01 A302 RMK A01 T00171012  RH  081%=      5-min Rain = 0
KKE1 140935Z 30003KT 02/M01 A302 RMK A01 T00171013  RH  081%=      5-min Rain = 0
KKE1 140936Z 30003KT 02/M01 A302 RMK A01 T00171014  RH  080%=      5-min Rain = 0
KKE1 140937Z 29003KT 02/M02 A302 RMK A01 T00151015  RH  080%=      5-min Rain = 0
KKE1 140938Z 28003KT 01/M02 A302 RMK A01 T00131016  RH  081%=      5-min Rain = 0
KKE1 140939Z 28003KT 01/M02 A302 RMK A01 T00111018  RH  081%=      5-min Rain = 0
KKE1 140940Z 27003KT 01/M02 A302 RMK A01 T00091019  RH  082%=      5-min Rain = 0
KKE1 140941Z 27004KT 01/M02 A302 RMK A01 T00081018  RH  083%=      5-min Rain = 0
KKE1 140942Z 26004KT 01/M02 A302 RMK A01 T00081016  RH  084%=      5-min Rain = 0
KKE1 140943Z 26005KT 01/M02 A302 RMK A01 T00081016  RH  084%=      5-min Rain = 0
KKE1 140944Z 27005KT 01/M02 A302 RMK A01 T00081015  RH  084%=      5-min Rain = 0
KKE1 140945Z 26005KT 01/M02 A302 RMK A01 T00091015  RH  084%=      5-min Rain = 0
KKE1 140946Z 25005KT 01/M02 A302 RMK A01 T00091015  RH  084%=      5-min Rain = 0
KKE1 140947Z 24005KT 01/M01 A302 RMK A01 T00091014  RH  084%=      5-min Rain = 0
KKE1 140948Z 25006KT 01/M01 A302 RMK A01 T00101014  RH  084%=      5-min Rain = 0
KKE1 140949Z 24006KT 01/M01 A302 RMK A01 T00101014  RH  084%=      5-min Rain = 0
KKE1 140950Z 23005KT 01/M01 A302 RMK A01 T00121013  RH  083%=      5-min Rain = 0
KKE1 140951Z 22005KT 01/M01 A302 RMK A01 T00131013  RH  082%=      5-min Rain = 0
KKE1 140952Z 22005KT 01/M01 A302 RMK A01 T00141014  RH  082%=      5-min Rain = 0
KKE1 140953Z 22005KT 01/M02 A302 RMK A01 T00131015  RH  082%=      5-min Rain = 0
KKE1 140954Z 22004KT 01/M02 A302 RMK A01 T00121015  RH  082%=      5-min Rain = 0
KKE1 140955Z 24006KT 01/M02 A302 RMK A01 T00111015  RH  083%=      5-min Rain = 0
KKE1 140956Z 24006KT 01/M02 A302 RMK A01 T00101015  RH  083%=      5-min Rain = 0
KKE1 140957Z 24006KT 01/M01 A302 RMK A01 T00111014  RH  084%=      5-min Rain = 0
KKE1 140958Z 24006KT 01/M01 A302 RMK A01 T00111014  RH  083%=      5-min Rain = 0
KKE1 140959Z 24006KT 01/M01 A302 RMK A01 T00111014  RH  083%=      5-min Rain = 0
KKE1 141000Z 24006KT 01/M01 A302 RMK A01 T00111014  RH  083%=      5-min Rain = 0
KKE1 141001Z 24006KT 01/M01 A302 RMK A01 T00101014  RH  084%=      5-min Rain = 0
KKE1 141002Z 24006KT 01/M01 A302 RMK A01 T00101014  RH  084%=      5-min Rain = 0
KKE1 141003Z 24007KT 01/M01 A302 RMK A01 T00101014  RH  084%=      5-min Rain = 0
KKE1 141004Z 24006KT 01/M01 A302 RMK A01 T00091014  RH  084%=      5-min Rain = 0
KKE1 141005Z 24005KT 01/M01 A302 RMK A01 T00101013  RH  084%=      5-min Rain = 0
KKE1 141006Z 24005KT 01/M01 A302 RMK A01 T00101014  RH  084%=      5-min Rain = 0
KKE1 141007Z 24005KT 01/M01 A302 RMK A01 T00101014  RH  084%=      5-min Rain = 0
KKE1 141008Z 24005KT 01/M01 A302 RMK A01 T00101014  RH  084%=      5-min Rain = 0
KKE1 141009Z 25005KT 01/M01 A302 RMK A01 T00101014  RH  084%=      5-min Rain = 0
KKE1 141010Z 25005KT 01/M02 A302 RMK A01 T00091015  RH  084%=      5-min Rain = 0
KKE1 141011Z 26006KT 01/M02 A302 RMK A01 T00081015  RH  085%=      5-min Rain = 0
KKE1 141012Z 25005KT 01/M02 A3019 RMK A01 T00071015  RH  085%=      5-min Rain = 0
KKE1 141013Z 25005KT 01/M01 A3019 RMK A01 T00071014  RH  086%=      5-min Rain = 0
KKE1 141014Z 26004KT 01/M02 A302 RMK A01 T00071015  RH  086%=      5-min Rain = 0
KKE1 141015Z 27004KT 01/M02 A302 RMK A01 T00061015  RH  086%=      5-min Rain = 0
KKE1 141016Z 27005KT 01/M02 A302 RMK A01 T00051016  RH  086%=      5-min Rain = 0
KKE1 141017Z 27004KT 00/M02 A302 RMK A01 T00041017  RH  086%=      5-min Rain = 0
KKE1 141018Z 26006KT 00/M02 A302 RMK A01 T00031016  RH  087%=      5-min Rain = 0
KKE1 141019Z 26005KT 00/M02 A302 RMK A01 T00031016  RH  087%=      5-min Rain = 0
KKE1 141020Z 27004KT 00/M02 A302 RMK A01 T00031016  RH  088%=      5-min Rain = 0
KKE1 141021Z 27004KT 00/M02 A302 RMK A01 T00031015  RH  088%=      5-min Rain = 0
KKE1 141022Z 28003KT 00/M02 A302 RMK A01 T00031015  RH  087%=      5-min Rain = 0
KKE1 141023Z 28003KT 00/M02 A302 RMK A01 T00031016  RH  087%=      5-min Rain = 0
KKE1 141024Z 27003KT 00/M02 A302 RMK A01 T00031016  RH  087%=      5-min Rain = 0
KKE1 141025Z 27003KT 00/M02 A302 RMK A01 T00031016  RH  087%=      5-min Rain = 0
KKE1 141026Z 28003KT 00/M02 A302 RMK A01 T00031016  RH  087%=      5-min Rain = 0
KKE1 141027Z 28004KT 00/M02 A302 RMK A01 T00021017  RH  087%=      5-min Rain = 0
KKE1 141028Z 28004KT 00/M02 A302 RMK A01 T00021017  RH  087%=      5-min Rain = 0
KKE1 141029Z 29004KT 00/M02 A302 RMK A01 T00011017  RH  088%=      5-min Rain = 0
KKE1 141030Z 29003KT 00/M02 A302 RMK A01 T00011016  RH  088%=      5-min Rain = 0
KKE1 141031Z 29004KT 00/M02 A302 RMK A01 T00011016  RH  088%=      5-min Rain = 0
KKE1 141032Z 29005KT 00/02 A302 RMK A01 T00000-16  RH  089%=      5-min Rain = 0
KKE1 141033Z 29006KT 00/02 A302 RMK A01 T00-00-16  RH  089%=      5-min Rain = 0
KKE1 141034Z 29005KT 00/02 A302 RMK A01 T00000-16  RH  089%=      5-min Rain = 0
KKE1 141035Z 29004KT 00/02 A302 RMK A01 T00000-15  RH  089%=      5-min Rain = 0
KKE1 141036Z 29005KT 00/02 A302 RMK A01 T00000-16  RH  089%=      5-min Rain = 0
KKE1 141037Z 28005KT 00/02 A302 RMK A01 T00000-16  RH  089%=      5-min Rain = 0
KKE1 141038Z 28005KT 00/M02 A302 RMK A01 T00011015  RH  089%=      5-min Rain = 0
KKE1 141039Z 28005KT 00/M02 A302 RMK A01 T00011015  RH  089%=      5-min Rain = 0
KKE1 141040Z 28005KT 00/M02 A302 RMK A01 T00011015  RH  089%=      5-min Rain = 0
KKE1 141041Z 27005KT 00/M02 A302 RMK A01 T00011016  RH  089%=      5-min Rain = 0
KKE1 141042Z 26005KT 00/M02 A302 RMK A01 T00011015  RH  089%=      5-min Rain = 0
KKE1 141043Z 26005KT 00/M02 A302 RMK A01 T00011015  RH  089%=      5-min Rain = 0
KKE1 141044Z 26005KT 00/M02 A302 RMK A01 T00011015  RH  089%=      5-min Rain = 0
KKE1 141045Z 27004KT 00/M02 A302 RMK A01 T00011015  RH  089%=      5-min Rain = 0
KKE1 141046Z 26005KT 00/M02 A302 RMK A01 T00011016  RH  089%=      5-min Rain = 0
KKE1 141047Z 26005KT 00/02 A302 RMK A01 T00-00-16  RH  089%=      5-min Rain = 0
KKE1 141048Z 27004KT 00/02 A302 RMK A01 T00000-16  RH  089%=      5-min Rain = 0
KKE1 141049Z 28006KT 00/02 A3021 RMK A01 T00-00-16  RH  089%=      5-min Rain = 0
KKE1 141050Z 28006KT M00/M02 A3021 RMK A01 T10011016  RH  089%=      5-min Rain = 0
KKE1 141051Z 28005KT 00/02 A3021 RMK A01 T00-00-15  RH  090%=      5-min Rain = 0
KKE1 141052Z 28005KT 00/02 A302 RMK A01 T00-00-15  RH  090%=      5-min Rain = 0
KKE1 141053Z 27005KT 00/02 A302 RMK A01 T00-00-15  RH  089%=      5-min Rain = 0
KKE1 141054Z 26005KT 00/02 A302 RMK A01 T00-00-15  RH  090%=      5-min Rain = 0
KKE1 141055Z 27004KT 00/02 A302 RMK A01 T00-00-15  RH  090%=      5-min Rain = 0
KKE1 141056Z 27004KT 00/02 A302 RMK A01 T00-00-15  RH  090%=      5-min Rain = 0
KKE1 141057Z 27005KT M00/M02 A302 RMK A01 T10011016  RH  090%=      5-min Rain = 0
KKE1 141058Z 26004KT M00/M02 A302 RMK A01 T10011016  RH  090%=      5-min Rain = 0
KKE1 141059Z 27004KT M00/M02 A302 RMK A01 T10011015  RH  090%=      5-min Rain = 0
KKE1 141100Z 27004KT M00/M02 A302 RMK A01 T10011015  RH  090%=      5-min Rain = 0
KKE1 141101Z 26004KT M00/M02 A3021 RMK A01 T10021016  RH  090%=      5-min Rain = 0
KKE1 141102Z 25004KT M00/M02 A3021 RMK A01 T10021016  RH  091%=      5-min Rain = 0
KKE1 141103Z 25004KT M00/M02 A3021 RMK A01 T10021016  RH  091%=      5-min Rain = 0
KKE1 141104Z 25005KT M00/M02 A3021 RMK A01 T10031016  RH  091%=      5-min Rain = 0
KKE1 141105Z 25006KT M00/M02 A3021 RMK A01 T10031015  RH  091%=      5-min Rain = 0
KKE1 141106Z 25005KT M00/M01 A3021 RMK A01 T10031014  RH  092%=      5-min Rain = 0
KKE1 141107Z 25005KT M00/M01 A3021 RMK A01 T10031014  RH  092%=      5-min Rain = 0
KKE1 141108Z 26004KT M00/M01 A3021 RMK A01 T10021014  RH  092%=      5-min Rain = 0
KKE1 141109Z 26005KT M00/M01 A3021 RMK A01 T10021014  RH  092%=      5-min Rain = 0
KKE1 141110Z 26005KT M00/M01 A3021 RMK A01 T10031014  RH  092%=      5-min Rain = 0
KKE1 141111Z 26005KT M00/M01 A3021 RMK A01 T10031014  RH  092%=      5-min Rain = 0
KKE1 141112Z 26006KT M00/M01 A3021 RMK A01 T10031014  RH  092%=      5-min Rain = 0
KKE1 141113Z 25006KT M00/M01 A3021 RMK A01 T10031014  RH  092%=      5-min Rain = 0
KKE1 141114Z 26006KT M00/M01 A3021 RMK A01 T10021013  RH  093%=      5-min Rain = 0
KKE1 141115Z 26004KT M00/M01 A3021 RMK A01 T10021013  RH  092%=      5-min Rain = 0
KKE1 141116Z 28004KT M00/M01 A3021 RMK A01 T10031014  RH  092%=      5-min Rain = 0
KKE1 141117Z 28005KT M00/M02 A3021 RMK A01 T10041015  RH  092%=      5-min Rain = 0
KKE1 141118Z 28005KT M00/M02 A3021 RMK A01 T10041015  RH  092%=      5-min Rain = 0
KKE1 141119Z 28004KT M00/M02 A3021 RMK A01 T10041015  RH  093%=      5-min Rain = 0
KKE1 141120Z 28004KT M01/M02 A3021 RMK A01 T10051015  RH  093%=      5-min Rain = 0
KKE1 141121Z 27004KT M01/M02 A3021 RMK A01 T10051015  RH  093%=      5-min Rain = 0
KKE1 141122Z 27004KT M01/M02 A3021 RMK A01 T10051015  RH  093%=      5-min Rain = 0
KKE1 141123Z 27004KT M01/M02 A3021 RMK A01 T10051015  RH  093%=      5-min Rain = 0
KKE1 141124Z 26004KT M01/M02 A3021 RMK A01 T10051015  RH  093%=      5-min Rain = 0
KKE1 141125Z 27003KT M01/M02 A3021 RMK A01 T10051015  RH  093%=      5-min Rain = 0
KKE1 141126Z 27003KT M01/M02 A3022 RMK A01 T10051016  RH  093%=      5-min Rain = 0
KKE1 141127Z 27002KT M01/M02 A3021 RMK A01 T10061016  RH  093%=      5-min Rain = 0
KKE1 141128Z 28003KT M01/M02 A3021 RMK A01 T10071017  RH  093%=      5-min Rain = 0
KKE1 141129Z 28004KT M01/M02 A3022 RMK A01 T10081018  RH  093%=      5-min Rain = 0
KKE1 141130Z 29004KT M01/M02 A3022 RMK A01 T10091018  RH  093%=      5-min Rain = 0
KKE1 141131Z 29004KT M01/M02 A3022 RMK A01 T10101018  RH  094%=      5-min Rain = 0
KKE1 141132Z 29004KT M01/M02 A3022 RMK A01 T10101018  RH  095%=      5-min Rain = 0
KKE1 141133Z 29004KT M01/M02 A3022 RMK A01 T10101017  RH  095%=      5-min Rain = 0
KKE1 141134Z 29005KT M01/M02 A3022 RMK A01 T10101017  RH  095%=      5-min Rain = 0
KKE1 141135Z 29005KT M01/M02 A3022 RMK A01 T10101016  RH  096%=      5-min Rain = 0
KKE1 141136Z 29005KT M01/M02 A3022 RMK A01 T10101016  RH  096%=      5-min Rain = 0
KKE1 141137Z 27005KT M01/M02 A3022 RMK A01 T10101015  RH  096%=      5-min Rain = 0
KKE1 141138Z 28005KT M01/M02 A3022 RMK A01 T10101015  RH  096%=      5-min Rain = 0
KKE1 141139Z 28005KT M01/M02 A3022 RMK A01 T10101015  RH  096%=      5-min Rain = 0
KKE1 141140Z 27004KT M01/M02 A3022 RMK A01 T10101015  RH  097%=      5-min Rain = 0
KKE1 141141Z 26004KT M01/M02 A3022 RMK A01 T10101015  RH  097%=      5-min Rain = 0
KKE1 141142Z 26004KT M01/M02 A3022 RMK A01 T10101015  RH  097%=      5-min Rain = 0
KKE1 141143Z 25004KT M01/M01 A3022 RMK A01 T10101014  RH  097%=      5-min Rain = 0
KKE1 141144Z 27004KT M01/M02 A3022 RMK A01 T10101015  RH  097%=      5-min Rain = 0
KKE1 141145Z 27005KT M01/M02 A3022 RMK A01 T10101015  RH  097%=      5-min Rain = 0
KKE1 141146Z 26004KT M01/M01 A3022 RMK A01 T10101014  RH  097%=      5-min Rain = 0
KKE1 141147Z 27004KT M01/M01 A3022 RMK A01 T10101014  RH  097%=      5-min Rain = 0
KKE1 141148Z 27004KT M01/M01 A3022 RMK A01 T10101014  RH  097%=      5-min Rain = 0
KKE1 141149Z 28004KT M01/M01 A3022 RMK A01 T10101014  RH  097%=      5-min Rain = 0
KKE1 141150Z 28004KT M01/M01 A3022 RMK A01 T10091013  RH  097%=      5-min Rain = 0
KKE1 141151Z 27005KT M01/M01 A3022 RMK A01 T10091013  RH  097%=      5-min Rain = 0
KKE1 141152Z 26005KT M01/M01 A3022 RMK A01 T10081012  RH  097%=      5-min Rain = 0
KKE1 141153Z 26004KT M01/M01 A3022 RMK A01 T10081012  RH  097%=      5-min Rain = 0
KKE1 141154Z 27004KT M01/M01 A3022 RMK A01 T10081012  RH  097%=      5-min Rain = 0
KKE1 141155Z 26003KT M01/M01 A3022 RMK A01 T10081012  RH  097%=      5-min Rain = 0
KKE1 141156Z 26003KT M01/M01 A3022 RMK A01 T10081012  RH  097%=      5-min Rain = 0
KKE1 141157Z 27003KT M01/M01 A3022 RMK A01 T10081012  RH  097%=      5-min Rain = 0
KKE1 141158Z 27005KT M01/M01 A3022 RMK A01 T10081012  RH  097%=      5-min Rain = 0
KKE1 141159Z 28006KT M01/M01 A3022 RMK A01 T10081012  RH  097%=      5-min Rain = 0
KKE1 141200Z 27005KT M01/M01 A3022 RMK A01 T10081012  RH  097%=      5-min Rain = 0
KKE1 141201Z 26005KT M01/M01 A3022 RMK A01 T10081012  RH  098%=      5-min Rain = 0
KKE1 141202Z 26005KT M01/M01 A3022 RMK A01 T10081012  RH  097%=      5-min Rain = 0
KKE1 141203Z 25005KT M01/M01 A3022 RMK A01 T10081011  RH  098%=      5-min Rain = 0
KKE1 141204Z 25005KT M01/M01 A3022 RMK A01 T10081011  RH  098%=      5-min Rain = 0
KKE1 141205Z 24006KT M01/M01 A3022 RMK A01 T10081011  RH  098%=      5-min Rain = 0
KKE1 141206Z 25006KT M01/M01 A3022 RMK A01 T10081011  RH  098%=      5-min Rain = 0
KKE1 141207Z 24006KT M01/M01 A3022 RMK A01 T10071011  RH  098%=      5-min Rain = 0
KKE1 141208Z 25006KT M01/M01 A3022 RMK A01 T10081011  RH  098%=      5-min Rain = 0
KKE1 141209Z 25007KT M01/M01 A3022 RMK A01 T10071011  RH  098%=      5-min Rain = 0
KKE1 141210Z 25008KT M01/M01 A3022 RMK A01 T10071011  RH  098%=      5-min Rain = 0
KKE1 141211Z 26008KT M01/M01 A3022 RMK A01 T10071011  RH  098%=      5-min Rain = 0
KKE1 141212Z 26008KT M01/M01 A3022 RMK A01 T10081011  RH  098%=      5-min Rain = 0
KKE1 141213Z 25006KT M01/M01 A3022 RMK A01 T10071011  RH  098%=      5-min Rain = 0
KKE1 141214Z 24005KT M01/M01 A3022 RMK A01 T10071011  RH  098%=      5-min Rain = 0
KKE1 141215Z 24005KT M01/M01 A3022 RMK A01 T10071011  RH  098%=      5-min Rain = 0
KKE1 141216Z 24005KT M01/M01 A3022 RMK A01 T10081011  RH  098%=      5-min Rain = 0
KKE1 141217Z 24006KT M01/M01 A3022 RMK A01 T10081011  RH  098%=      5-min Rain = 0
KKE1 141218Z 25006KT M01/M01 A3022 RMK A01 T10081011  RH  098%=      5-min Rain = 0
KKE1 141219Z 25006KT M01/M01 A3022 RMK A01 T10081012  RH  098%=      5-min Rain = 0
KKE1 141220Z 25006KT M01/M01 A3022 RMK A01 T10081012  RH  098%=      5-min Rain = 0
KKE1 141221Z 25006KT M01/M01 A3022 RMK A01 T10081011  RH  098%=      5-min Rain = 0
KKE1 141222Z 25006KT M01/M01 A3022 RMK A01 T10081011  RH  098%=      5-min Rain = 0
KKE1 141223Z 24005KT M01/M01 A3022 RMK A01 T10081011  RH  098%=      5-min Rain = 0
KKE1 141224Z 25006KT M01/M01 A3022 RMK A01 T10071011  RH  098%=      5-min Rain = 0
KKE1 141225Z 25006KT M01/M01 A3022 RMK A01 T10071010  RH  098%=      5-min Rain = 0
KKE1 141226Z 26006KT M01/M01 A3022 RMK A01 T10071010  RH  098%=      5-min Rain = 0
KKE1 141227Z 27005KT M01/M01 A3022 RMK A01 T10071010  RH  098%=      5-min Rain = 0
KKE1 141228Z 25004KT M01/M01 A3022 RMK A01 T10071010  RH  098%=      5-min Rain = 0
KKE1 141229Z 25005KT M01/M01 A3022 RMK A01 T10071010  RH  098%=      5-min Rain = 0
KKE1 141230Z 24006KT M01/M01 A3022 RMK A01 T10071010  RH  098%=      5-min Rain = 0
KKE1 141231Z 24006KT M01/M01 A3022 RMK A01 T10061009  RH  098%=      5-min Rain = 0
KKE1 141232Z 23007KT M01/M01 A3022 RMK A01 T10061009  RH  098%=      5-min Rain = 0
KKE1 141233Z 23008KT M01/M01 A3022 RMK A01 T10061009  RH  098%=      5-min Rain = 0
KKE1 141234Z 23007KT M01/M01 A3022 RMK A01 T10071009  RH  098%=      5-min Rain = 0
KKE1 141235Z 24006KT M01/M01 A3022 RMK A01 T10071010  RH  098%=      5-min Rain = 0
KKE1 141236Z 25005KT M01/M01 A3022 RMK A01 T10061009  RH  098%=      5-min Rain = 0
KKE1 141237Z 25006KT M01/M01 A3022 RMK A01 T10061009  RH  098%=      5-min Rain = 0
KKE1 141238Z 24006KT M01/M01 A3022 RMK A01 T10061009  RH  098%=      5-min Rain = 0
KKE1 141239Z 24005KT M01/M01 A3022 RMK A01 T10061009  RH  098%=      5-min Rain = 0
KKE1 141240Z 24005KT M01/M01 A3022 RMK A01 T10061009  RH  098%=      5-min Rain = 0
KKE1 141241Z 23006KT M01/M01 A3022 RMK A01 T10061009  RH  098%=      5-min Rain = 0
KKE1 141242Z 24006KT M01/M01 A3022 RMK A01 T10061008  RH  098%=      5-min Rain = 0
KKE1 141243Z 24006KT M01/M01 A3022 RMK A01 T10051008  RH  098%=      5-min Rain = 0
KKE1 141244Z 24006KT M01/M01 A3023 RMK A01 T10061008  RH  098%=      5-min Rain = 0
KKE1 141245Z 24006KT M01/M01 A3023 RMK A01 T10061009  RH  098%=      5-min Rain = 0
KKE1 141246Z 25006KT M01/M01 A3023 RMK A01 T10061009  RH  098%=      5-min Rain = 0
KKE1 141247Z 24006KT M01/M01 A3023 RMK A01 T10051008  RH  098%=      5-min Rain = 0
KKE1 141248Z 25004KT M01/M01 A3023 RMK A01 T10061009  RH  098%=      5-min Rain = 0
KKE1 141249Z 25004KT M01/M01 A3023 RMK A01 T10061008  RH  098%=      5-min Rain = 0
KKE1 141250Z 26004KT M01/M01 A3023 RMK A01 T10051008  RH  098%=      5-min Rain = 0
KKE1 141251Z 26006KT M01/M01 A3023 RMK A01 T10051008  RH  098%=      5-min Rain = 0
KKE1 141252Z 24004KT M00/M01 A3023 RMK A01 T10041007  RH  098%=      5-min Rain = 0
KKE1 141253Z 25004KT M01/M01 A3023 RMK A01 T10051007  RH  098%=      5-min Rain = 0
KKE1 141254Z 25005KT M01/M01 A3023 RMK A01 T10051008  RH  098%=      5-min Rain = 0
KKE1 141255Z 26006KT M01/M01 A3023 RMK A01 T10051007  RH  098%=      5-min Rain = 0
KKE1 141256Z 25005KT M01/M01 A3023 RMK A01 T10051008  RH  098%=      5-min Rain = 0
KKE1 141257Z 25007KT M01/M01 A3023 RMK A01 T10051008  RH  098%=      5-min Rain = 0
KKE1 141258Z 24006KT M01/M01 A3023 RMK A01 T10051008  RH  098%=      5-min Rain = 0
KKE1 141259Z 24007KT M01/M01 A3023 RMK A01 T10061008  RH  098%=      5-min Rain = 0
KKE1 141300Z 25006KT M01/M01 A3023 RMK A01 T10051008  RH  098%=      5-min Rain = 0
KKE1 141301Z 25006KT M01/M01 A3023 RMK A01 T10061008  RH  098%=      5-min Rain = 0
KKE1 141302Z 25004KT M01/M01 A3023 RMK A01 T10051008  RH  098%=      5-min Rain = 0
KKE1 141303Z 26005KT M01/M01 A3023 RMK A01 T10051008  RH  098%=      5-min Rain = 0
KKE1 141304Z 27004KT M01/M01 A3023 RMK A01 T10051008  RH  098%=      5-min Rain = 0
KKE1 141305Z 25005KT M01/M01 A3023 RMK A01 T10051008  RH  098%=      5-min Rain = 0
KKE1 141306Z 25006KT M01/M01 A3023 RMK A01 T10051008  RH  098%=      5-min Rain = 0
KKE1 141307Z 24007KT M01/M01 A3023 RMK A01 T10051008  RH  098%=      5-min Rain = 0
KKE1 141308Z 24007KT M01/M01 A3023 RMK A01 T10051008  RH  098%=      5-min Rain = 0
KKE1 141309Z 24007KT M01/M01 A3023 RMK A01 T10061008  RH  098%=      5-min Rain = 0
KKE1 141310Z 24007KT M01/M01 A3023 RMK A01 T10061009  RH  098%=      5-min Rain = 0
KKE1 141311Z 24007KT M01/M01 A3023 RMK A01 T10061009  RH  098%=      5-min Rain = 0
KKE1 141312Z 24006KT M01/M01 A3023 RMK A01 T10061009  RH  098%=      5-min Rain = 0
KKE1 141313Z 24007KT M01/M01 A3024 RMK A01 T10061009  RH  098%=      5-min Rain = 0
KKE1 141314Z 24008KT M01/M01 A3024 RMK A01 T10061009  RH  098%=      5-min Rain = 0
KKE1 141315Z 25007KT M01/M01 A3024 RMK A01 T10061009  RH  098%=      5-min Rain = 0
KKE1 141316Z 25007KT M01/M01 A3024 RMK A01 T10071009  RH  098%=      5-min Rain = 0
KKE1 141317Z 25006KT M01/M01 A3024 RMK A01 T10061009  RH  098%=      5-min Rain = 0
KKE1 141318Z 26006KT M01/M01 A3024 RMK A01 T10071009  RH  098%=      5-min Rain = 0
KKE1 141319Z 26007KT M01/M01 A3024 RMK A01 T10071009  RH  098%=      5-min Rain = 0
KKE1 141320Z 24006KT M01/M01 A3024 RMK A01 T10071009  RH  098%=      5-min Rain = 0
KKE1 141321Z 25006KT M01/M01 A3024 RMK A01 T10071009  RH  098%=      5-min Rain = 0
KKE1 141322Z 25006KT M01/M01 A3024 RMK A01 T10071009  RH  098%=      5-min Rain = 0
KKE1 141323Z 25005KT M01/M01 A3024 RMK A01 T10061009  RH  098%=      5-min Rain = 0
KKE1 141324Z 26004KT M01/M01 A3024 RMK A01 T10071009  RH  098%=      5-min Rain = 0
KKE1 141325Z 26005KT M01/M01 A3024 RMK A01 T10071009  RH  098%=      5-min Rain = 0
KKE1 141326Z 26003KT M01/M01 A3024 RMK A01 T10071009  RH  098%=      5-min Rain = 0
KKE1 141327Z 25003KT M01/M01 A3024 RMK A01 T10071009  RH  098%=      5-min Rain = 0
KKE1 141328Z 25004KT M01/M01 A3023 RMK A01 T10071009  RH  098%=      5-min Rain = 0
KKE1 141329Z 25004KT M01/M01 A3023 RMK A01 T10061009  RH  098%=      5-min Rain = 0
KKE1 141330Z 25004KT M01/M01 A3023 RMK A01 T10061008  RH  098%=      5-min Rain = 0
KKE1 141331Z 25006KT M01/M01 A3023 RMK A01 T10061008  RH  098%=      5-min Rain = 0
KKE1 141332Z 25005KT M01/M01 A3023 RMK A01 T10061009  RH  098%=      5-min Rain = 0
KKE1 141333Z 27004KT M01/M01 A3023 RMK A01 T10061009  RH  098%=      5-min Rain = 0
KKE1 141334Z 27004KT M01/M01 A3024 RMK A01 T10061009  RH  098%=      5-min Rain = 0
KKE1 141335Z 28003KT M01/M01 A3024 RMK A01 T10061009  RH  098%=      5-min Rain = 0
KKE1 141336Z 27003KT M01/M01 A3024 RMK A01 T10061009  RH  098%=      5-min Rain = 0
KKE1 141337Z 26003KT M01/M01 A3024 RMK A01 T10071009  RH  098%=      5-min Rain = 0
KKE1 141338Z 26003KT M01/M01 A3024 RMK A01 T10071009  RH  098%=      5-min Rain = 0
KKE1 141339Z 26003KT M01/M01 A3024 RMK A01 T10071009  RH  098%=      5-min Rain = 0
KKE1 141340Z 25002KT M01/M01 A3024 RMK A01 T10061009  RH  098%=      5-min Rain = 0
KKE1 141341Z 24002KT M01/M01 A3024 RMK A01 T10071009  RH  098%=      5-min Rain = 0
KKE1 141342Z 25003KT M01/M01 A3024 RMK A01 T10061009  RH  098%=      5-min Rain = 0
KKE1 141343Z 26002KT M01/M01 A3024 RMK A01 T10061008  RH  098%=      5-min Rain = 0
KKE1 141344Z 27002KT M01/M01 A3024 RMK A01 T10061009  RH  098%=      5-min Rain = 0
KKE1 141345Z 26001KT M01/M01 A3024 RMK A01 T10061009  RH  098%=      5-min Rain = 0
KKE1 141346Z 24002KT M01/M01 A3024 RMK A01 T10071009  RH  098%=      5-min Rain = 0
KKE1 141347Z 24002KT M01/M01 A3024 RMK A01 T10061009  RH  098%=      5-min Rain = 0
KKE1 141348Z 23004KT M01/M01 A3024 RMK A01 T10061009  RH  098%=      5-min Rain = 0
KKE1 141349Z 23004KT M01/M01 A3024 RMK A01 T10061009  RH  098%=      5-min Rain = 0
KKE1 141350Z 23004KT M01/M01 A3024 RMK A01 T10061009  RH  098%=      5-min Rain = 0
KKE1 141351Z 24006KT M01/M01 A3024 RMK A01 T10071009  RH  098%=      5-min Rain = 0
KKE1 141352Z 24006KT M01/M01 A3024 RMK A01 T10071009  RH  098%=      5-min Rain = 0
KKE1 141353Z 24005KT M01/M01 A3024 RMK A01 T10061009  RH  098%=      5-min Rain = 0
KKE1 141354Z 25005KT M01/M01 A3024 RMK A01 T10061009  RH  098%=      5-min Rain = 0
KKE1 141355Z 25005KT M01/M01 A3024 RMK A01 T10061009  RH  098%=      5-min Rain = 0
KKE1 141356Z 25006KT M01/M01 A3024 RMK A01 T10061008  RH  098%=      5-min Rain = 0
KKE1 141357Z 25006KT M01/M01 A3024 RMK A01 T10051007  RH  098%=      5-min Rain = 0
KKE1 141358Z 25006KT M01/M01 A3024 RMK A01 T10051008  RH  098%=      5-min Rain = 0
KKE1 141359Z 25005KT M01/M01 A3024 RMK A01 T10051007  RH  098%=      5-min Rain = 0
KKE1 141400Z 26004KT M01/M01 A3024 RMK A01 T10051007  RH  098%=      5-min Rain = 0
KKE1 141401Z 27003KT M00/M01 A3024 RMK A01 T10041007  RH  098%=      5-min Rain = 0
KKE1 141402Z 28004KT M00/M01 A3024 RMK A01 T10041007  RH  098%=      5-min Rain = 0
KKE1 141403Z 28004KT M00/M01 A3025 RMK A01 T10041007  RH  098%=      5-min Rain = 0
KKE1 141404Z 28004KT M00/M01 A3025 RMK A01 T10041007  RH  098%=      5-min Rain = 0
KKE1 141405Z 28003KT M01/M01 A3025 RMK A01 T10051007  RH  098%=      5-min Rain = 0
KKE1 141406Z 28003KT M01/M01 A3025 RMK A01 T10051008  RH  098%=      5-min Rain = 0
KKE1 141407Z 27003KT M01/M01 A3025 RMK A01 T10051007  RH  098%=      5-min Rain = 0
KKE1 141408Z 28003KT M01/M01 A3025 RMK A01 T10051007  RH  098%=      5-min Rain = 0
KKE1 141409Z 26005KT M01/M01 A3025 RMK A01 T10051007  RH  098%=      5-min Rain = 0
KKE1 141410Z 25004KT M01/M01 A3025 RMK A01 T10051007  RH  098%=      5-min Rain = 0
KKE1 141411Z 26004KT M00/M01 A3025 RMK A01 T10041007  RH  098%=      5-min Rain = 0
KKE1 141412Z 27004KT M00/M01 A3025 RMK A01 T10041007  RH  098%=      5-min Rain = 0
KKE1 141413Z 26003KT M00/M01 A3025 RMK A01 T10041007  RH  098%=      5-min Rain = 0
KKE1 141414Z 26002KT M01/M01 A3025 RMK A01 T10051007  RH  098%=      5-min Rain = 0
KKE1 141415Z 26003KT M01/M01 A3024 RMK A01 T10051007  RH  098%=      5-min Rain = 0
KKE1 141416Z 28002KT M00/M01 A3024 RMK A01 T10041007  RH  098%=      5-min Rain = 0
KKE1 141417Z 28002KT M00/M01 A3024 RMK A01 T10041006  RH  098%=      5-min Rain = 0
KKE1 141418Z 27002KT M00/M01 A3024 RMK A01 T10041006  RH  098%=      5-min Rain = 0
KKE1 141419Z 29002KT M00/M01 A3024 RMK A01 T10031006  RH  098%=      5-min Rain = 0
KKE1 141420Z 30004KT M00/M01 A3024 RMK A01 T10031005  RH  098%=      5-min Rain = 0
KKE1 141421Z 30005KT M00/M01 A3024 RMK A01 T10031006  RH  098%=      5-min Rain = 0
KKE1 141422Z 29005KT M00/M01 A3024 RMK A01 T10041006  RH  098%=      5-min Rain = 0
KKE1 141423Z 29004KT M00/M01 A3024 RMK A01 T10041006  RH  098%=      5-min Rain = 0
KKE1 141424Z 30006KT M00/M01 A3024 RMK A01 T10041006  RH  098%=      5-min Rain = 0
KKE1 141425Z 30005KT M00/M01 A3024 RMK A01 T10041006  RH  098%=      5-min Rain = 0
KKE1 141426Z 29005KT M00/M01 A3024 RMK A01 T10041006  RH  098%=      5-min Rain = 0
KKE1 141427Z 28005KT M00/M01 A3024 RMK A01 T10041006  RH  098%=      5-min Rain = 0
KKE1 141428Z 30005KT M00/M01 A3024 RMK A01 T10041006  RH  098%=      5-min Rain = 0
KKE1 141429Z 30006KT M00/M01 A3024 RMK A01 T10041006  RH  098%=      5-min Rain = 0
KKE1 141430Z 30007KT M00/M01 A3024 RMK A01 T10041006  RH  098%=      5-min Rain = 0
KKE1 141431Z 29006KT M00/M01 A3024 RMK A01 T10041006  RH  098%=      5-min Rain = 0
KKE1 141432Z 29006KT M00/M01 A3024 RMK A01 T10041006  RH  098%=      5-min Rain = 0
KKE1 141433Z 29006KT M00/M01 A3024 RMK A01 T10041006  RH  098%=      5-min Rain = 0
KKE1 141434Z 28005KT M00/M01 A3024 RMK A01 T10041007  RH  098%=      5-min Rain = 0
KKE1 141435Z 29004KT M00/M01 A3024 RMK A01 T10041007  RH  098%=      5-min Rain = 0
KKE1 141436Z 28004KT M00/M01 A3024 RMK A01 T10041006  RH  098%=      5-min Rain = 0
KKE1 141437Z 27004KT M00/M01 A3024 RMK A01 T10031005  RH  098%=      5-min Rain = 0
KKE1 141438Z 28004KT M00/M01 A3024 RMK A01 T10021005  RH  098%=      5-min Rain = 0
KKE1 141439Z 30004KT M00/M00 A3024 RMK A01 T10021004  RH  098%=      5-min Rain = 0
KKE1 141440Z 29005KT M00/M01 A3024 RMK A01 T10021005  RH  098%=      5-min Rain = 0
KKE1 141441Z 27005KT M00/M01 A3024 RMK A01 T10031005  RH  098%=      5-min Rain = 0
KKE1 141442Z 29005KT M00/M01 A3024 RMK A01 T10031006  RH  098%=      5-min Rain = 0
KKE1 141443Z 28003KT M00/M01 A3024 RMK A01 T10041006  RH  098%=      5-min Rain = 0
KKE1 141444Z 27004KT M00/M01 A3024 RMK A01 T10031006  RH  098%=      5-min Rain = 0
KKE1 141445Z 28005KT M00/M01 A3024 RMK A01 T10031006  RH  098%=      5-min Rain = 0
KKE1 141446Z 24005KT M00/M01 A3024 RMK A01 T10031006  RH  098%=      5-min Rain = 0
KKE1 141447Z 24005KT M00/M01 A3024 RMK A01 T10031006  RH  098%=      5-min Rain = 0
KKE1 141448Z 24006KT M00/M01 A3024 RMK A01 T10041006  RH  098%=      5-min Rain = 0
KKE1 141449Z 23005KT M00/M01 A3024 RMK A01 T10041006  RH  098%=      5-min Rain = 0
KKE1 141450Z 23005KT M01/M01 A3024 RMK A01 T10051007  RH  098%=      5-min Rain = 0
KKE1 141451Z 23005KT M01/M01 A3024 RMK A01 T10051008  RH  098%=      5-min Rain = 0
KKE1 141452Z 23005KT M01/M01 A3024 RMK A01 T10051008  RH  098%=      5-min Rain = 0
KKE1 141453Z 24004KT M01/M01 A3024 RMK A01 T10051008  RH  098%=      5-min Rain = 0
KKE1 141454Z 24004KT M01/M01 A3024 RMK A01 T10051007  RH  098%=      5-min Rain = 0
KKE1 141455Z 25005KT M00/M01 A3024 RMK A01 T10031006  RH  098%=      5-min Rain = 0
KKE1 141456Z 24005KT M00/M01 A3024 RMK A01 T10031006  RH  098%=      5-min Rain = 0
KKE1 141457Z 23005KT M00/M01 A3024 RMK A01 T10041006  RH  098%=      5-min Rain = 0
KKE1 141458Z 23005KT M01/M01 A3024 RMK A01 T10051007  RH  098%=      5-min Rain = 0
KKE1 141459Z 23005KT M01/M01 A3024 RMK A01 T10051008  RH  098%=      5-min Rain = 0
KKE1 141500Z 23004KT M01/M01 A3024 RMK A01 T10051008  RH  098%=      5-min Rain = 0
KKE1 141501Z 23004KT M01/M01 A3024 RMK A01 T10061008  RH  098%=      5-min Rain = 0
KKE1 141502Z 25003KT M01/M01 A3024 RMK A01 T10061008  RH  098%=      5-min Rain = 0
KKE1 141503Z 25003KT M00/M01 A3024 RMK A01 T10041007  RH  098%=      5-min Rain = 0
KKE1 141504Z 25003KT M00/M01 A3024 RMK A01 T10041007  RH  098%=      5-min Rain = 0
KKE1 141505Z 27002KT M01/M01 A3024 RMK A01 T10051008  RH  098%=      5-min Rain = 0
KKE1 141506Z 26001KT M01/M01 A3024 RMK A01 T10061008  RH  098%=      5-min Rain = 0
KKE1 141507Z 26001KT M01/M01 A3025 RMK A01 T10051008  RH  098%=      5-min Rain = 0
KKE1 141508Z 29001KT M00/M01 A3025 RMK A01 T10041007  RH  098%=      5-min Rain = 0
KKE1 141509Z 27002KT M00/M01 A3025 RMK A01 T10041006  RH  098%=      5-min Rain = 0
KKE1 141510Z 27002KT M00/M01 A3025 RMK A01 T10041006  RH  098%=      5-min Rain = 0
KKE1 141511Z 31002KT M00/M01 A3025 RMK A01 T10031006  RH  098%=      5-min Rain = 0
KKE1 141512Z 31003KT M00/M01 A3025 RMK A01 T10031006  RH  098%=      5-min Rain = 0
KKE1 141513Z 32004KT M00/M01 A3025 RMK A01 T10021005  RH  098%=      5-min Rain = 0
KKE1 141514Z 33003KT M00/M01 A3025 RMK A01 T10021005  RH  098%=      5-min Rain = 0
KKE1 141515Z 33003KT M00/M01 A3025 RMK A01 T10021005  RH  098%=      5-min Rain = 0
KKE1 141516Z 32003KT M00/M01 A3025 RMK A01 T10031006  RH  098%=      5-min Rain = 0
KKE1 141517Z 31002KT M00/M01 A3025 RMK A01 T10021005  RH  098%=      5-min Rain = 0
KKE1 141518Z 31003KT M00/M01 A3025 RMK A01 T10031005  RH  098%=      5-min Rain = 0
KKE1 141519Z 31002KT M00/M01 A3025 RMK A01 T10041006  RH  098%=      5-min Rain = 0
KKE1 141520Z 30002KT M00/M01 A3025 RMK A01 T10041007  RH  098%=      5-min Rain = 0
KKE1 141521Z 30002KT M00/M01 A3025 RMK A01 T10041006  RH  098%=      5-min Rain = 0
KKE1 141522Z 31006KT M00/M01 A3025 RMK A01 T10021005  RH  098%=      5-min Rain = 0
KKE1 141523Z 33004KT M00/M01 A3025 RMK A01 T10021005  RH  098%=      5-min Rain = 0
KKE1 141524Z 31004KT M00/M01 A3025 RMK A01 T10031005  RH  098%=      5-min Rain = 0
KKE1 141525Z 32003KT M00/M01 A3025 RMK A01 T10031005  RH  098%=      5-min Rain = 0
KKE1 141526Z 33003KT M00/M01 A3025 RMK A01 T10031006  RH  098%=      5-min Rain = 0
KKE1 141527Z 32004KT M00/M01 A3025 RMK A01 T10031005  RH  098%=      5-min Rain = 0
KKE1 141528Z 33003KT M00/M01 A3025 RMK A01 T10021005  RH  098%=      5-min Rain = 0
KKE1 141529Z 32004KT M00/M01 A3026 RMK A01 T10021005  RH  098%=      5-min Rain = 0
KKE1 141530Z 29004KT M00/M00 A3026 RMK A01 T10011004  RH  098%=      5-min Rain = 0
KKE1 141531Z 28005KT M00/M00 A3026 RMK A01 T10011004  RH  098%=      5-min Rain = 0
KKE1 141532Z 29004KT M00/M00 A3026 RMK A01 T10021004  RH  098%=      5-min Rain = 0
KKE1 141533Z 28004KT M00/M00 A3026 RMK A01 T10011003  RH  098%=      5-min Rain = 0
KKE1 141534Z 29005KT 00/00 A3026 RMK A01 T00-000-3  RH  098%=      5-min Rain = 0
KKE1 141535Z 29005KT M00/M00 A3026 RMK A01 T10011003  RH  098%=      5-min Rain = 0
KKE1 141536Z 29005KT M00/M00 A3026 RMK A01 T10011004  RH  098%=      5-min Rain = 0
KKE1 141537Z 29004KT M00/M01 A3026 RMK A01 T10021005  RH  098%=      5-min Rain = 0
KKE1 141538Z 28004KT M00/M00 A3026 RMK A01 T10021004  RH  098%=      5-min Rain = 0
KKE1 141539Z 29004KT M00/M00 A3026 RMK A01 T10021004  RH  098%=      5-min Rain = 0
KKE1 141540Z 29005KT M00/M00 A3026 RMK A01 T10011004  RH  098%=      5-min Rain = 0
KKE1 141541Z 30004KT M00/M00 A3026 RMK A01 T10011004  RH  098%=      5-min Rain = 0
KKE1 141542Z 29004KT M00/M00 A3026 RMK A01 T10011004  RH  098%=      5-min Rain = 0
KKE1 141543Z 30003KT M00/M00 A3026 RMK A01 T10021004  RH  098%=      5-min Rain = 0
KKE1 141544Z 28003KT M00/M00 A3025 RMK A01 T10011004  RH  098%=      5-min Rain = 0
KKE1 141545Z 30004KT M00/M00 A3025 RMK A01 T10011004  RH  098%=      5-min Rain = 0
KKE1 141546Z 30003KT M00/M00 A3025 RMK A01 T10011004  RH  098%=      5-min Rain = 0
KKE1 141547Z 28003KT 00/00 A3025 RMK A01 T00-000-3  RH  098%=      5-min Rain = 0
KKE1 141548Z 29003KT 00/M00 A3025 RMK A01 T00011002  RH  098%=      5-min Rain = 0
KKE1 141549Z 30004KT 00/00 A3025 RMK A01 T000200-0  RH  098%=      5-min Rain = 0
KKE1 141550Z 31004KT 00/00 A3025 RMK A01 T00030000  RH  098%=      5-min Rain = 0
KKE1 141551Z 31004KT 00/M00 A3025 RMK A01 T00021001  RH  098%=      5-min Rain = 0
KKE1 141552Z 29005KT 00/M00 A3025 RMK A01 T00011002  RH  098%=      5-min Rain = 0
KKE1 141553Z 31005KT 00/M00 A3025 RMK A01 T00011002  RH  098%=      5-min Rain = 0
KKE1 141554Z 31004KT 00/M00 A3026 RMK A01 T00011002  RH  098%=      5-min Rain = 0
KKE1 141555Z 31005KT 00/M00 A3026 RMK A01 T00011002  RH  098%=      5-min Rain = 0
KKE1 141556Z 32005KT 00/M00 A3026 RMK A01 T00011002  RH  098%=      5-min Rain = 0
KKE1 141557Z 31004KT 00/M00 A3026 RMK A01 T00021001  RH  098%=      5-min Rain = 0
KKE1 141558Z 30003KT 00/00 A3026 RMK A01 T000200-0  RH  098%=      5-min Rain = 0
KKE1 141559Z 30005KT 00/00 A3026 RMK A01 T000200-0  RH  098%=      5-min Rain = 0
KKE1 141600Z 30004KT 00/00 A3026 RMK A01 T00030000  RH  098%=      5-min Rain = 0
KKE1 141601Z 30004KT 00/00 A3026 RMK A01 T000200-0  RH  098%=      5-min Rain = 0
KKE1 141602Z 30005KT 00/00 A3026 RMK A01 T00030000  RH  098%=      5-min Rain = 0
KKE1 141603Z 30004KT 00/00 A3026 RMK A01 T00030000  RH  098%=      5-min Rain = 0
KKE1 141604Z 30004KT 00/00 A3026 RMK A01 T00040001  RH  098%=      5-min Rain = 0
KKE1 141605Z 28005KT 00/00 A3026 RMK A01 T00040001  RH  098%=      5-min Rain = 0
KKE1 141606Z 28004KT 00/00 A3026 RMK A01 T00040001  RH  098%=      5-min Rain = 0
KKE1 141607Z 28004KT 00/00 A3026 RMK A01 T00030000  RH  098%=      5-min Rain = 0
KKE1 141608Z 27005KT 00/00 A3026 RMK A01 T00030000  RH  098%=      5-min Rain = 0
KKE1 141609Z 28005KT 00/00 A3026 RMK A01 T00030000  RH  098%=      5-min Rain = 0
KKE1 141610Z 30004KT 00/00 A3026 RMK A01 T00030000  RH  098%=      5-min Rain = 0
KKE1 141611Z 29004KT 00/00 A3026 RMK A01 T00030000  RH  098%=      5-min Rain = 0
KKE1 141612Z 30004KT 00/00 A3026 RMK A01 T000300-0  RH  098%=      5-min Rain = 0
KKE1 141613Z 30003KT 00/M00 A3026 RMK A01 T00021001  RH  098%=      5-min Rain = 0
KKE1 141614Z 30004KT 00/00 A3026 RMK A01 T00030000  RH  098%=      5-min Rain = 0
KKE1 141615Z 30003KT 00/00 A3026 RMK A01 T00030001  RH  098%=      5-min Rain = 0
KKE1 141616Z 30004KT 00/00 A3026 RMK A01 T00030000  RH  098%=      5-min Rain = 0
KKE1 141617Z 30004KT 00/00 A3026 RMK A01 T00040001  RH  098%=      5-min Rain = 0
KKE1 141618Z 30004KT 01/00 A3026 RMK A01 T00060003  RH  098%=      5-min Rain = 0
KKE1 141619Z 31004KT 01/00 A3026 RMK A01 T00070004  RH  098%=      5-min Rain = 0
KKE1 141620Z 30004KT 01/01 A3026 RMK A01 T00080005  RH  098%=      5-min Rain = 0
KKE1 141621Z 29004KT 01/01 A3026 RMK A01 T00080006  RH  098%=      5-min Rain = 0
KKE1 141622Z 28004KT 01/01 A3026 RMK A01 T00080005  RH  098%=      5-min Rain = 0
KKE1 141623Z 30004KT 01/00 A3026 RMK A01 T00070004  RH  098%=      5-min Rain = 0
KKE1 141624Z 29005KT 01/01 A3026 RMK A01 T00070005  RH  098%=      5-min Rain = 0
KKE1 141625Z 29006KT 01/01 A3026 RMK A01 T00070005  RH  098%=      5-min Rain = 0
KKE1 141626Z 31004KT 01/01 A3026 RMK A01 T00070005  RH  098%=      5-min Rain = 0
KKE1 141627Z 30004KT 01/01 A3026 RMK A01 T00080006  RH  098%=      5-min Rain = 0
KKE1 141628Z 31004KT 01/01 A3026 RMK A01 T00090006  RH  098%=      5-min Rain = 0
KKE1 141629Z 30003KT 01/01 A3026 RMK A01 T00090006  RH  098%=      5-min Rain = 0
KKE1 141630Z 29006KT 01/01 A3026 RMK A01 T00090007  RH  098%=      5-min Rain = 0
KKE1 141631Z 29004KT 01/01 A3026 RMK A01 T00100007  RH  098%=      5-min Rain = 0
KKE1 141632Z 30005KT 01/01 A3026 RMK A01 T00100007  RH  098%=      5-min Rain = 0
KKE1 141633Z 31006KT 01/01 A3026 RMK A01 T00090006  RH  098%=      5-min Rain = 0
KKE1 141634Z 31005KT 01/00 A3026 RMK A01 T00070004  RH  098%=      5-min Rain = 0
KKE1 141635Z 31005KT 01/01 A3026 RMK A01 T00090006  RH  098%=      5-min Rain = 0
KKE1 141636Z 30005KT 01/01 A3026 RMK A01 T00090007  RH  098%=      5-min Rain = 0
KKE1 141637Z 30004KT 01/01 A3026 RMK A01 T00090006  RH  098%=      5-min Rain = 0
KKE1 141638Z 29004KT 01/01 A3026 RMK A01 T00090006  RH  098%=      5-min Rain = 0
KKE1 141639Z 28005KT 01/01 A3026 RMK A01 T00090007  RH  098%=      5-min Rain = 0
KKE1 141640Z 29006KT 01/01 A3026 RMK A01 T00090006  RH  098%=      5-min Rain = 0
KKE1 141641Z 31005KT 01/01 A3026 RMK A01 T00080005  RH  098%=      5-min Rain = 0
KKE1 141642Z 30005KT 01/01 A3025 RMK A01 T00090006  RH  098%=      5-min Rain = 0
KKE1 141643Z 30005KT 01/01 A3025 RMK A01 T00090007  RH  098%=      5-min Rain = 0
KKE1 141644Z 29004KT 01/01 A3025 RMK A01 T00100007  RH  098%=      5-min Rain = 0
KKE1 141645Z 30004KT 01/01 A3025 RMK A01 T00100007  RH  098%=      5-min Rain = 0
KKE1 141646Z 30005KT 01/01 A3025 RMK A01 T00100008  RH  098%=      5-min Rain = 0
KKE1 141647Z 31004KT 01/01 A3026 RMK A01 T00120009  RH  098%=      5-min Rain = 0
KKE1 141648Z 30003KT 01/01 A3026 RMK A01 T00130010  RH  098%=      5-min Rain = 0
KKE1 141649Z 30006KT 01/01 A3026 RMK A01 T00140011  RH  098%=      5-min Rain = 0
KKE1 141650Z 30004KT 01/01 A3026 RMK A01 T00130010  RH  098%=      5-min Rain = 0
KKE1 141651Z 30004KT 01/01 A3026 RMK A01 T00130011  RH  098%=      5-min Rain = 0
KKE1 141652Z 31003KT 01/01 A3026 RMK A01 T00120009  RH  098%=      5-min Rain = 0
KKE1 141653Z 30006KT 01/01 A3026 RMK A01 T00120009  RH  098%=      5-min Rain = 0
KKE1 141654Z 29006KT 01/01 A3026 RMK A01 T00120009  RH  098%=      5-min Rain = 0
KKE1 141655Z 30005KT 01/01 A3026 RMK A01 T00120008  RH  098%=      5-min Rain = 0
KKE1 141656Z 30004KT 01/01 A3026 RMK A01 T00110008  RH  098%=      5-min Rain = 0
KKE1 141657Z 30004KT 01/01 A3026 RMK A01 T00130010  RH  098%=      5-min Rain = 0
KKE1 141658Z 27003KT 01/01 A3026 RMK A01 T00140011  RH  098%=      5-min Rain = 0
KKE1 141659Z 29005KT 01/01 A3026 RMK A01 T00140011  RH  098%=      5-min Rain = 0
KKE1 141700Z 29005KT 02/01 A3026 RMK A01 T00150012  RH  098%=      5-min Rain = 0
KKE1 141701Z 29004KT 01/01 A3026 RMK A01 T00140011  RH  098%=      5-min Rain = 0
KKE1 141702Z 30006KT 02/01 A3026 RMK A01 T00150012  RH  098%=      5-min Rain = 0
KKE1 141703Z 29006KT 02/01 A3025 RMK A01 T00150011  RH  098%=      5-min Rain = 0
KKE1 141704Z 28005KT 01/01 A3025 RMK A01 T00140010  RH  098%=      5-min Rain = 0
KKE1 141705Z 29006KT 02/01 A3025 RMK A01 T00160012  RH  098%=      5-min Rain = 0
KKE1 141706Z 30005KT 01/01 A3025 RMK A01 T00140011  RH  098%=      5-min Rain = 0
KKE1 141707Z 30005KT 01/01 A3025 RMK A01 T00130009  RH  097%=      5-min Rain = 0
KKE1 141708Z 29006KT 01/01 A3025 RMK A01 T00140011  RH  098%=      5-min Rain = 0
KKE1 141709Z 29003KT 02/01 A3025 RMK A01 T00160012  RH  098%=      5-min Rain = 0
KKE1 141710Z 29003KT 02/02 A3025 RMK A01 T00180015  RH  098%=      5-min Rain = 0
KKE1 141711Z 29006KT 02/02 A3025 RMK A01 T00180015  RH  098%=      5-min Rain = 0
KKE1 141712Z 30006KT 02/02 A3025 RMK A01 T00180015  RH  098%=      5-min Rain = 0
KKE1 141713Z 28005KT 02/01 A3025 RMK A01 T00180014  RH  097%=      5-min Rain = 0
KKE1 141714Z 27004KT 02/02 A3025 RMK A01 T00210018  RH  098%=      5-min Rain = 0
KKE1 141715Z 28004KT 02/02 A3025 RMK A01 T00210017  RH  098%=      5-min Rain = 0
KKE1 141716Z 29004KT 02/02 A3025 RMK A01 T00190015  RH  097%=      5-min Rain = 0
KKE1 141717Z 30005KT 02/02 A3025 RMK A01 T00190015  RH  097%=      5-min Rain = 0
KKE1 141718Z 31004KT 02/01 A3025 RMK A01 T00180013  RH  097%=      5-min Rain = 0
KKE1 141719Z 31005KT 02/01 A3025 RMK A01 T00180013  RH  097%=      5-min Rain = 0
KKE1 141720Z 30005KT 02/01 A3025 RMK A01 T00180014  RH  097%=      5-min Rain = 0
KKE1 141721Z 30005KT 02/01 A3025 RMK A01 T00180013  RH  097%=      5-min Rain = 0
KKE1 141722Z 30004KT 02/01 A3025 RMK A01 T00170012  RH  096%=      5-min Rain = 0
KKE1 141723Z 30003KT 02/01 A3025 RMK A01 T00190014  RH  097%=      5-min Rain = 0
KKE1 141724Z 25005KT 02/02 A3025 RMK A01 T00220017  RH  097%=      5-min Rain = 0
KKE1 141725Z 28004KT 02/02 A3025 RMK A01 T00230018  RH  097%=      5-min Rain = 0
KKE1 141726Z 31004KT 02/02 A3025 RMK A01 T00230018  RH  096%=      5-min Rain = 0
KKE1 141727Z 27004KT 02/02 A3025 RMK A01 T00240017  RH  096%=      5-min Rain = 0
KKE1 141728Z 26004KT 03/02 A3025 RMK A01 T00250018  RH  095%=      5-min Rain = 0
KKE1 141729Z 26003KT 03/02 A3025 RMK A01 T00250018  RH  095%=      5-min Rain = 0
KKE1 141730Z 25003KT 03/02 A3025 RMK A01 T00260019  RH  095%=      5-min Rain = 0
KKE1 141731Z 26004KT 03/02 A3025 RMK A01 T00280020  RH  095%=      5-min Rain = 0
KKE1 141732Z 27003KT 03/02 A3025 RMK A01 T00280019  RH  094%=      5-min Rain = 0
KKE1 141733Z 28003KT 03/02 A3025 RMK A01 T00280017  RH  093%=      5-min Rain = 0
KKE1 141734Z 24004KT 03/02 A3025 RMK A01 T00270016  RH  093%=      5-min Rain = 0
KKE1 141735Z 25004KT 03/02 A3025 RMK A01 T00290019  RH  093%=      5-min Rain = 0
KKE1 141736Z 25003KT 03/02 A3025 RMK A01 T00290017  RH  092%=      5-min Rain = 0
KKE1 141737Z 25003KT 03/02 A3025 RMK A01 T00280016  RH  092%=      5-min Rain = 0
KKE1 141738Z 27002KT 03/02 A3025 RMK A01 T00290018  RH  093%=      5-min Rain = 0
KKE1 141739Z 30003KT 03/02 A3025 RMK A01 T00300021  RH  093%=      5-min Rain = 0
KKE1 141740Z 33002KT 03/02 A3025 RMK A01 T00310021  RH  093%=      5-min Rain = 0
KKE1 141741Z 28003KT 03/02 A3025 RMK A01 T00320021  RH  093%=      5-min Rain = 0
KKE1 141742Z 30004KT 03/02 A3024 RMK A01 T00330021  RH  092%=      5-min Rain = 0
KKE1 141743Z 29004KT 03/02 A3024 RMK A01 T00320019  RH  091%=      5-min Rain = 0
KKE1 141744Z 32004KT 03/02 A3024 RMK A01 T00310017  RH  091%=      5-min Rain = 0
KKE1 141745Z 29005KT 03/02 A3024 RMK A01 T00320021  RH  092%=      5-min Rain = 0
KKE1 141746Z 31004KT 03/02 A3024 RMK A01 T00340021  RH  091%=      5-min Rain = 0
KKE1 141747Z 28005KT 03/02 A3024 RMK A01 T00340021  RH  091%=      5-min Rain = 0
KKE1 141748Z 29005KT 03/02 A3024 RMK A01 T00340019  RH  090%=      5-min Rain = 0
KKE1 141749Z 29003KT 03/02 A3024 RMK A01 T00330018  RH  090%=      5-min Rain = 0
KKE1 141750Z 31003KT 03/02 A3024 RMK A01 T00330018  RH  090%=      5-min Rain = 0
KKE1 141751Z 31001KT 03/02 A3024 RMK A01 T00330018  RH  090%=      5-min Rain = 0
KKE1 141752Z 32005KT 04/02 A3024 RMK A01 T00360022  RH  091%=      5-min Rain = 0
KKE1 141753Z 30003KT 04/02 A3024 RMK A01 T00370020  RH  089%=      5-min Rain = 0
KKE1 141754Z 31002KT 04/02 A3024 RMK A01 T00380021  RH  089%=      5-min Rain = 0
KKE1 141755Z 31002KT 04/02 A3024 RMK A01 T00370018  RH  087%=      5-min Rain = 0
KKE1 141756Z 31002KT 04/02 A3024 RMK A01 T00380020  RH  089%=      5-min Rain = 0
KKE1 141757Z 33003KT 04/02 A3024 RMK A01 T00380020  RH  088%=      5-min Rain = 0
KKE1 141758Z 34002KT 04/02 A3024 RMK A01 T00390018  RH  087%=      5-min Rain = 0
KKE1 141759Z 01001KT 04/02 A3024 RMK A01 T00390019  RH  087%=      5-min Rain = 0
KKE1 141800Z 03001KT 04/02 A3024 RMK A01 T00390018  RH  086%=      5-min Rain = 0
KKE1 141801Z 02002KT 04/02 A3024 RMK A01 T00390019  RH  086%=      5-min Rain = 0
KKE1 141802Z 35002KT 04/02 A3024 RMK A01 T00410019  RH  086%=      5-min Rain = 0
KKE1 141803Z 33004KT 04/02 A3023 RMK A01 T00420021  RH  086%=      5-min Rain = 0
KKE1 141804Z 34004KT 04/02 A3023 RMK A01 T00440024  RH  087%=      5-min Rain = 0
KKE1 141805Z 32001KT 05/02 A3023 RMK A01 T00450022  RH  085%=      5-min Rain = 0
KKE1 141806Z 23002KT 05/02 A3023 RMK A01 T00450022  RH  085%=      5-min Rain = 0
KKE1 141807Z 28001KT 04/02 A3023 RMK A01 T00440021  RH  085%=      5-min Rain = 0
KKE1 141808Z 35003KT 05/02 A3023 RMK A01 T00450022  RH  086%=      5-min Rain = 0
KKE1 141809Z 33002KT 05/02 A3023 RMK A01 T00460023  RH  085%=      5-min Rain = 0
KKE1 141810Z 31001KT 05/02 A3023 RMK A01 T00460021  RH  084%=      5-min Rain = 0
KKE1 141811Z 30001KT 05/02 A3023 RMK A01 T00460021  RH  084%=      5-min Rain = 0
KKE1 141812Z 14000KT 05/02 A3023 RMK A01 T00470022  RH  084%=      5-min Rain = 0
KKE1 141813Z 31002KT 05/02 A3023 RMK A01 T00470021  RH  083%=      5-min Rain = 0
KKE1 141814Z 31002KT 05/02 A3023 RMK A01 T00480022  RH  083%=      5-min Rain = 0
KKE1 141815Z 34002KT 05/02 A3023 RMK A01 T00480024  RH  084%=      5-min Rain = 0
KKE1 141816Z 35002KT 05/03 A3023 RMK A01 T00520028  RH  085%=      5-min Rain = 0
KKE1 141817Z 02002KT 05/03 A3023 RMK A01 T00530026  RH  082%=      5-min Rain = 0
KKE1 141818Z 03002KT 05/02 A3023 RMK A01 T00530024  RH  081%=      5-min Rain = 0
KKE1 141819Z 03000KT 05/02 A3023 RMK A01 T00530022  RH  081%=      5-min Rain = 0
KKE1 141820Z 02000KT 05/03 A3023 RMK A01 T00520025  RH  083%=      5-min Rain = 0
KKE1 141821Z 35001KT 05/03 A3023 RMK A01 T00540028  RH  083%=      5-min Rain = 0
KKE1 141822Z 02004KT 06/03 A3023 RMK A01 T00570028  RH  081%=      5-min Rain = 0
KKE1 141823Z 05004KT 06/03 A3023 RMK A01 T00590025  RH  079%=      5-min Rain = 0
KKE1 141824Z 06004KT 06/03 A3023 RMK A01 T00590025  RH  079%=      5-min Rain = 0
KKE1 141825Z 05004KT 06/02 A3023 RMK A01 T00580022  RH  078%=      5-min Rain = 0
KKE1 141826Z 07002KT 06/02 A3023 RMK A01 T00580022  RH  078%=      5-min Rain = 0
KKE1 141827Z 06001KT 06/02 A3023 RMK A01 T00580024  RH  079%=      5-min Rain = 0
KKE1 141828Z 05001KT 06/03 A3023 RMK A01 T00600028  RH  080%=      5-min Rain = 0
KKE1 141829Z 06003KT 06/03 A3022 RMK A01 T00620026  RH  078%=      5-min Rain = 0
KKE1 141830Z 06003KT 06/02 A3022 RMK A01 T00620024  RH  076%=      5-min Rain = 0
KKE1 141831Z 08002KT 06/02 A3022 RMK A01 T00620024  RH  077%=      5-min Rain = 0
KKE1 141832Z 06003KT 06/03 A3022 RMK A01 T00640028  RH  078%=      5-min Rain = 0
KKE1 141833Z 07003KT 07/03 A3022 RMK A01 T00670028  RH  076%=      5-min Rain = 0
KKE1 141834Z 05003KT 07/03 A3022 RMK A01 T00680026  RH  075%=      5-min Rain = 0
KKE1 141835Z 03001KT 07/02 A3022 RMK A01 T00660024  RH  074%=      5-min Rain = 0
KKE1 141836Z 23001KT 07/03 A3022 RMK A01 T00650025  RH  076%=      5-min Rain = 0
KKE1 141837Z 07001KT 06/03 A3022 RMK A01 T00640025  RH  076%=      5-min Rain = 0
KKE1 141838Z 07002KT 07/03 A3022 RMK A01 T00650026  RH  076%=      5-min Rain = 0
KKE1 141839Z 06000KT 07/03 A3022 RMK A01 T00670028  RH  077%=      5-min Rain = 0
KKE1 141840Z 34000KT 07/03 A3022 RMK A01 T00680029  RH  076%=      5-min Rain = 0
KKE1 141841Z 11000KT 07/03 A3021 RMK A01 T00690033  RH  078%=      5-min Rain = 0
KKE1 141842Z 04000KT 07/03 A3021 RMK A01 T00700030  RH  076%=      5-min Rain = 0
KKE1 141843Z 02003KT 07/03 A3021 RMK A01 T00710028  RH  074%=      5-min Rain = 0
KKE1 141844Z 03004KT 07/03 A3021 RMK A01 T00710027  RH  073%=      5-min Rain = 0
KKE1 141845Z 02003KT 07/03 A3021 RMK A01 T00710027  RH  073%=      5-min Rain = 0
KKE1 141846Z 02001KT 07/03 A3021 RMK A01 T00710027  RH  073%=      5-min Rain = 0
KKE1 141847Z 05004KT 07/03 A3021 RMK A01 T00730032  RH  075%=      5-min Rain = 0
KKE1 141848Z 04006KT 08/03 A3021 RMK A01 T00760030  RH  072%=      5-min Rain = 0
KKE1 141849Z 01006KT 08/03 A3021 RMK A01 T00760028  RH  072%=      5-min Rain = 0
KKE1 141850Z 02006KT 08/03 A3021 RMK A01 T00770030  RH  072%=      5-min Rain = 0
KKE1 141851Z 03005KT 08/03 A3021 RMK A01 T00770028  RH  071%=      5-min Rain = 0
KKE1 141852Z 00005KT 08/03 A3021 RMK A01 T00770029  RH  072%=      5-min Rain = 0
KKE1 141853Z 01005KT 08/03 A3021 RMK A01 T00780031  RH  072%=      5-min Rain = 0
KKE1 141854Z 01006KT 08/03 A3021 RMK A01 T00800030  RH  071%=      5-min Rain = 0
KKE1 141855Z 02006KT 08/03 A3021 RMK A01 T00780027  RH  070%=      5-min Rain = 0
KKE1 141856Z 02007KT 08/03 A3021 RMK A01 T00780028  RH  071%=      5-min Rain = 0
KKE1 141857Z 03007KT 08/03 A3021 RMK A01 T00780027  RH  070%=      5-min Rain = 0
KKE1 141858Z 03007KT 08/03 A3021 RMK A01 T00770027  RH  071%=      5-min Rain = 0
KKE1 141859Z 03006KT 08/03 A3021 RMK A01 T00780027  RH  070%=      5-min Rain = 0
KKE1 141900Z 04004KT 08/03 A3021 RMK A01 T00770025  RH  070%=      5-min Rain = 0
KKE1 141901Z 04005KT 08/03 A3021 RMK A01 T00760026  RH  071%=      5-min Rain = 0
KKE1 141902Z 03006KT 08/03 A3021 RMK A01 T00790031  RH  072%=      5-min Rain = 0
KKE1 141903Z 04006KT 08/03 A3021 RMK A01 T00820030  RH  070%=      5-min Rain = 0
KKE1 141904Z 03006KT 08/03 A3021 RMK A01 T00800026  RH  068%=      5-min Rain = 0
KKE1 141905Z 05005KT 08/03 A3021 RMK A01 T00810030  RH  070%=      5-min Rain = 0
KKE1 141906Z 04006KT 08/03 A3021 RMK A01 T00830028  RH  068%=      5-min Rain = 0
KKE1 141907Z 01004KT 08/03 A3021 RMK A01 T00820026  RH  068%=      5-min Rain = 0
KKE1 141908Z 01003KT 08/02 A3021 RMK A01 T00800024  RH  068%=      5-min Rain = 0
KKE1 141909Z 01005KT 08/03 A3021 RMK A01 T00790027  RH  069%=      5-min Rain = 0
KKE1 141910Z 00004KT 08/03 A3021 RMK A01 T00810026  RH  068%=      5-min Rain = 0
KKE1 141911Z 00004KT 08/03 A3021 RMK A01 T00820029  RH  069%=      5-min Rain = 0
KKE1 141912Z 35005KT 08/03 A3021 RMK A01 T00840028  RH  068%=      5-min Rain = 0
KKE1 141913Z 01006KT 09/03 A302 RMK A01 T00850028  RH  067%=      5-min Rain = 0
KKE1 141914Z 02005KT 09/03 A302 RMK A01 T00850026  RH  067%=      5-min Rain = 0
KKE1 141915Z 03006KT 09/03 A302 RMK A01 T00850026  RH  067%=      5-min Rain = 0
KKE1 141916Z 04006KT 08/03 A302 RMK A01 T00840027  RH  067%=      5-min Rain = 0
KKE1 141917Z 04007KT 08/03 A302 RMK A01 T00840025  RH  066%=      5-min Rain = 0
KKE1 141918Z 02006KT 08/02 A302 RMK A01 T00810023  RH  067%=      5-min Rain = 0
KKE1 141919Z 02005KT 08/03 A302 RMK A01 T00790025  RH  069%=      5-min Rain = 0
KKE1 141920Z 04006KT 08/03 A302 RMK A01 T00800025  RH  069%=      5-min Rain = 0
KKE1 141921Z 04005KT 08/03 A302 RMK A01 T00820028  RH  068%=      5-min Rain = 0
KKE1 141922Z 00006KT 08/03 A302 RMK A01 T00830025  RH  067%=      5-min Rain = 0
KKE1 141923Z 04006KT 08/02 A302 RMK A01 T00810024  RH  067%=      5-min Rain = 0
KKE1 141924Z 04005KT 08/02 A302 RMK A01 T00800024  RH  068%=      5-min Rain = 0
KKE1 141925Z 02005KT 08/02 A302 RMK A01 T00790024  RH  068%=      5-min Rain = 0
KKE1 141926Z 36006KT 08/02 A302 RMK A01 T00790024  RH  068%=      5-min Rain = 0
KKE1 141927Z 01006KT 08/03 A302 RMK A01 T00790026  RH  069%=      5-min Rain = 0
KKE1 141928Z 01005KT 08/03 A302 RMK A01 T00820027  RH  068%=      5-min Rain = 0
KKE1 141929Z 03006KT 08/03 A302 RMK A01 T00820025  RH  067%=      5-min Rain = 0
KKE1 141930Z 02003KT 08/02 A3019 RMK A01 T00800024  RH  067%=      5-min Rain = 0
KKE1 141931Z 01005KT 08/02 A3019 RMK A01 T00790024  RH  068%=      5-min Rain = 0
KKE1 141932Z 02006KT 08/02 A3019 RMK A01 T00790024  RH  068%=      5-min Rain = 0
KKE1 141933Z 02005KT 08/03 A3019 RMK A01 T00800026  RH  069%=      5-min Rain = 0
KKE1 141934Z 02006KT 08/03 A3019 RMK A01 T00810026  RH  068%=      5-min Rain = 0
KKE1 141935Z 00004KT 08/03 A3019 RMK A01 T00820025  RH  067%=      5-min Rain = 0
KKE1 141936Z 00004KT 08/03 A3019 RMK A01 T00820027  RH  068%=      5-min Rain = 0
KKE1 141937Z 01005KT 08/03 A3019 RMK A01 T00830026  RH  067%=      5-min Rain = 0
KKE1 141938Z 00005KT 08/02 A3019 RMK A01 T00830024  RH  067%=      5-min Rain = 0
KKE1 141939Z 01005KT 08/03 A3019 RMK A01 T00820025  RH  067%=      5-min Rain = 0
KKE1 141940Z 03006KT 08/03 A3018 RMK A01 T00820025  RH  068%=      5-min Rain = 0
KKE1 141941Z 01004KT 08/03 A3018 RMK A01 T00820026  RH  068%=      5-min Rain = 0
KKE1 141942Z 02006KT 08/03 A3018 RMK A01 T00830025  RH  067%=      5-min Rain = 0
KKE1 141943Z 04005KT 08/03 A3018 RMK A01 T00820025  RH  067%=      5-min Rain = 0
KKE1 141944Z 04004KT 08/03 A3018 RMK A01 T00820026  RH  068%=      5-min Rain = 0
KKE1 141945Z 04005KT 08/03 A3018 RMK A01 T00840027  RH  068%=      5-min Rain = 0
KKE1 141946Z 03004KT 08/03 A3018 RMK A01 T00830025  RH  067%=      5-min Rain = 0
KKE1 141947Z 01006KT 08/03 A3018 RMK A01 T00830027  RH  068%=      5-min Rain = 0
KKE1 141948Z 00006KT 08/02 A3018 RMK A01 T00820023  RH  066%=      5-min Rain = 0
KKE1 141949Z 00005KT 08/03 A3018 RMK A01 T00800025  RH  068%=      5-min Rain = 0
KKE1 141950Z 35005KT 08/03 A3018 RMK A01 T00810025  RH  068%=      5-min Rain = 0
KKE1 141951Z 36005KT 08/03 A3018 RMK A01 T00820026  RH  068%=      5-min Rain = 0
KKE1 141952Z 01006KT 08/03 A3018 RMK A01 T00830027  RH  068%=      5-min Rain = 0
KKE1 141953Z 01006KT 09/03 A3018 RMK A01 T00850026  RH  067%=      5-min Rain = 0
KKE1 141954Z 36005KT 08/02 A3018 RMK A01 T00830024  RH  066%=      5-min Rain = 0
KKE1 141955Z 01005KT 08/03 A3018 RMK A01 T00820025  RH  067%=      5-min Rain = 0
KKE1 141956Z 02005KT 08/03 A3018 RMK A01 T00820026  RH  068%=      5-min Rain = 0
KKE1 141957Z 02004KT 08/03 A3018 RMK A01 T00840026  RH  067%=      5-min Rain = 0
KKE1 141958Z 01005KT 08/03 A3017 RMK A01 T00840025  RH  067%=      5-min Rain = 0
KKE1 141959Z 01006KT 08/03 A3017 RMK A01 T00840026  RH  067%=      5-min Rain = 0
KKE1 142000Z 02006KT 09/03 A3017 RMK A01 T00870029  RH  067%=      5-min Rain = 0
KKE1 142001Z 36005KT 09/03 A3017 RMK A01 T00890028  RH  066%=      5-min Rain = 0
KKE1 142002Z 02005KT 09/03 A3017 RMK A01 T00890027  RH  065%=      5-min Rain = 0
KKE1 142003Z 03005KT 09/03 A3017 RMK A01 T00890029  RH  066%=      5-min Rain = 0
KKE1 142004Z 03006KT 09/03 A3017 RMK A01 T00920030  RH  066%=      5-min Rain = 0
KKE1 142005Z 03007KT 09/03 A3017 RMK A01 T00920028  RH  064%=      5-min Rain = 0
KKE1 142006Z 03006KT 09/03 A3017 RMK A01 T00900026  RH  064%=      5-min Rain = 0
KKE1 142007Z 04005KT 09/03 A3017 RMK A01 T00880026  RH  065%=      5-min Rain = 0
KKE1 142008Z 05004KT 09/03 A3017 RMK A01 T00900030  RH  066%=      5-min Rain = 0
KKE1 142009Z 06004KT 09/03 A3017 RMK A01 T00920030  RH  065%=      5-min Rain = 0
KKE1 142010Z 06007KT 09/03 A3017 RMK A01 T00940029  RH  064%=      5-min Rain = 0
KKE1 142011Z 07005KT 09/03 A3017 RMK A01 T00930028  RH  064%=      5-min Rain = 0
KKE1 142012Z 09005KT 09/03 A3016 RMK A01 T00920028  RH  064%=      5-min Rain = 0
KKE1 142013Z 08004KT 09/03 A3016 RMK A01 T00920028  RH  064%=      5-min Rain = 0
KKE1 142014Z 06004KT 09/03 A3016 RMK A01 T00930028  RH  064%=      5-min Rain = 0
KKE1 142015Z 09006KT 10/03 A3016 RMK A01 T00950031  RH  064%=      5-min Rain = 0
KKE1 142016Z 08006KT 10/03 A3016 RMK A01 T00970028  RH  062%=      5-min Rain = 0
KKE1 142017Z 09004KT 10/03 A3016 RMK A01 T00960029  RH  063%=      5-min Rain = 0
KKE1 142018Z 07005KT 10/03 A3016 RMK A01 T00950029  RH  063%=      5-min Rain = 0
KKE1 142019Z 06006KT 10/03 A3016 RMK A01 T00960029  RH  063%=      5-min Rain = 0
KKE1 142020Z 05005KT 10/03 A3016 RMK A01 T00960029  RH  063%=      5-min Rain = 0
KKE1 142021Z 05004KT 10/03 A3016 RMK A01 T00960029  RH  063%=      5-min Rain = 0
KKE1 142022Z 09005KT 10/03 A3016 RMK A01 T00970030  RH  063%=      5-min Rain = 0
KKE1 142023Z 09005KT 10/03 A3016 RMK A01 T00990031  RH  062%=      5-min Rain = 0
KKE1 142024Z 10004KT 10/03 A3015 RMK A01 T00990030  RH  062%=      5-min Rain = 0
KKE1 142025Z 11005KT 10/03 A3015 RMK A01 T01010032  RH  062%=      5-min Rain = 0
KKE1 142026Z 09007KT 10/03 A3015 RMK A01 T01020031  RH  061%=      5-min Rain = 0
KKE1 142027Z 11006KT 10/03 A3015 RMK A01 T01040031  RH  061%=      5-min Rain = 0
KKE1 142028Z 10004KT 10/03 A3015 RMK A01 T01040029  RH  059%=      5-min Rain = 0
KKE1 142029Z 07005KT 10/03 A3015 RMK A01 T01030030  RH  061%=      5-min Rain = 0
KKE1 142030Z 09005KT 10/03 A3015 RMK A01 T01030029  RH  060%=      5-min Rain = 0
KKE1 142031Z 09007KT 10/03 A3015 RMK A01 T01030029  RH  060%=      5-min Rain = 0
KKE1 142032Z 08005KT 10/03 A3015 RMK A01 T01030028  RH  060%=      5-min Rain = 0
KKE1 142033Z 09007KT 10/03 A3015 RMK A01 T01020029  RH  061%=      5-min Rain = 0
KKE1 142034Z 08006KT 10/03 A3015 RMK A01 T01020030  RH  061%=      5-min Rain = 0
KKE1 142035Z 09008KT 10/03 A3015 RMK A01 T01040030  RH  060%=      5-min Rain = 0
KKE1 142036Z 09006KT 10/03 A3015 RMK A01 T01040029  RH  060%=      5-min Rain = 0
KKE1 142037Z 08007KT 10/03 A3015 RMK A01 T01040030  RH  060%=      5-min Rain = 0
KKE1 142038Z 08006KT 10/03 A3015 RMK A01 T01040030  RH  060%=      5-min Rain = 0
KKE1 142039Z 08007KT 11/03 A3015 RMK A01 T01050031  RH  060%=      5-min Rain = 0
KKE1 142040Z 09006KT 11/03 A3014 RMK A01 T01050030  RH  060%=      5-min Rain = 0
KKE1 142041Z 08007KT 10/03 A3014 RMK A01 T01030029  RH  060%=      5-min Rain = 0
KKE1 142042Z 07008KT 10/03 A3014 RMK A01 T01030030  RH  060%=      5-min Rain = 0
KKE1 142043Z 09007KT 10/03 A3014 RMK A01 T01020029  RH  061%=      5-min Rain = 0
KKE1 142044Z 08007KT 10/03 A3014 RMK A01 T01020029  RH  061%=      5-min Rain = 0
KKE1 142045Z 07006KT 10/03 A3014 RMK A01 T01030032  RH  061%=      5-min Rain = 0
KKE1 142046Z 08006KT 11/03 A3014 RMK A01 T01060034  RH  061%=      5-min Rain = 0
KKE1 142047Z 08007KT 11/03 A3014 RMK A01 T01080032  RH  059%=      5-min Rain = 0
KKE1 142048Z 07006KT 11/03 A3014 RMK A01 T01060029  RH  059%=      5-min Rain = 0
KKE1 142049Z 07005KT 10/03 A3014 RMK A01 T01030028  RH  060%=      5-min Rain = 0
KKE1 142050Z 07006KT 10/03 A3014 RMK A01 T01020029  RH  061%=      5-min Rain = 0
KKE1 142051Z 07006KT 10/03 A3014 RMK A01 T01030032  RH  061%=      5-min Rain = 0
KKE1 142052Z 05006KT 11/03 A3014 RMK A01 T01050031  RH  060%=      5-min Rain = 0
KKE1 142053Z 06006KT 11/03 A3014 RMK A01 T01050032  RH  060%=      5-min Rain = 0
KKE1 142054Z 08008KT 11/03 A3014 RMK A01 T01060031  RH  060%=      5-min Rain = 0
KKE1 142055Z 08008KT 11/03 A3014 RMK A01 T01060030  RH  060%=      5-min Rain = 0
KKE1 142056Z 08007KT 10/03 A3014 RMK A01 T01040030  RH  060%=      5-min Rain = 0
KKE1 142057Z 08005KT 10/03 A3014 RMK A01 T01040031  RH  061%=      5-min Rain = 0
KKE1 142058Z 08007KT 11/03 A3014 RMK A01 T01060031  RH  060%=      5-min Rain = 0
KKE1 142059Z 08008KT 11/03 A3014 RMK A01 T01060031  RH  060%=      5-min Rain = 0
KKE1 142100Z 09009KT 11/03 A3014 RMK A01 T01060031  RH  060%=      5-min Rain = 0
KKE1 142101Z 08007KT 11/03 A3014 RMK A01 T01060030  RH  059%=      5-min Rain = 0
KKE1 142102Z 06007KT 11/03 A3014 RMK A01 T01050030  RH  060%=      5-min Rain = 0
KKE1 142103Z 07008KT 11/03 A3014 RMK A01 T01050032  RH  060%=      5-min Rain = 0
KKE1 142104Z 08007KT 11/03 A3014 RMK A01 T01060030  RH  059%=      5-min Rain = 0
KKE1 142105Z 08007KT 11/03 A3014 RMK A01 T01060031  RH  060%=      5-min Rain = 0
KKE1 142106Z 07007KT 11/03 A3014 RMK A01 T01060031  RH  060%=      5-min Rain = 0
KKE1 142107Z 09008KT 11/03 A3013 RMK A01 T01070031  RH  060%=      5-min Rain = 0
KKE1 142108Z 09008KT 11/03 A3013 RMK A01 T01080031  RH  059%=      5-min Rain = 0
KKE1 142109Z 09007KT 11/03 A3013 RMK A01 T01050029  RH  059%=      5-min Rain = 0
KKE1 142110Z 08007KT 10/03 A3013 RMK A01 T01040031  RH  060%=      5-min Rain = 0
KKE1 142111Z 08007KT 11/03 A3013 RMK A01 T01050030  RH  060%=      5-min Rain = 0
KKE1 142112Z 07008KT 10/03 A3013 RMK A01 T01040030  RH  060%=      5-min Rain = 0
KKE1 142113Z 08008KT 11/03 A3013 RMK A01 T01050031  RH  060%=      5-min Rain = 0
KKE1 142114Z 07007KT 11/03 A3013 RMK A01 T01060032  RH  060%=      5-min Rain = 0
KKE1 142115Z 06008KT 11/03 A3013 RMK A01 T01070032  RH  060%=      5-min Rain = 0
KKE1 142116Z 07006KT 11/03 A3013 RMK A01 T01080032  RH  059%=      5-min Rain = 0
KKE1 142117Z 08007KT 11/03 A3013 RMK A01 T01070032  RH  060%=      5-min Rain = 0
KKE1 142118Z 07008KT 11/03 A3013 RMK A01 T01070032  RH  060%=      5-min Rain = 0
KKE1 142119Z 08007KT 11/03 A3013 RMK A01 T01060030  RH  060%=      5-min Rain = 0
KKE1 142120Z 06004KT 11/03 A3013 RMK A01 T01050030  RH  060%=      5-min Rain = 0
KKE1 142121Z 06005KT 10/03 A3013 RMK A01 T01040031  RH  060%=      5-min Rain = 0
KKE1 142122Z 07008KT 11/04 A3013 RMK A01 T01070035  RH  061%=      5-min Rain = 0
KKE1 142123Z 09008KT 11/03 A3013 RMK A01 T01100034  RH  059%=      5-min Rain = 0
KKE1 142124Z 09006KT 11/03 A3013 RMK A01 T01100032  RH  059%=      5-min Rain = 0
KKE1 142125Z 09008KT 11/03 A3013 RMK A01 T01090033  RH  059%=      5-min Rain = 0
KKE1 142126Z 09008KT 11/03 A3013 RMK A01 T01090032  RH  059%=      5-min Rain = 0
KKE1 142127Z 08009KT 11/03 A3013 RMK A01 T01090032  RH  059%=      5-min Rain = 0
KKE1 142128Z 07007KT 11/03 A3013 RMK A01 T01080032  RH  059%=      5-min Rain = 0
KKE1 142129Z 06006KT 11/03 A3013 RMK A01 T01100034  RH  059%=      5-min Rain = 0
KKE1 142130Z 08008KT 11/03 A3013 RMK A01 T01110033  RH  059%=      5-min Rain = 0
KKE1 142131Z 08009KT 11/03 A3013 RMK A01 T01120033  RH  058%=      5-min Rain = 0
KKE1 142132Z 07009KT 11/03 A3013 RMK A01 T01120033  RH  058%=      5-min Rain = 0
KKE1 142133Z 07009KT 11/03 A3013 RMK A01 T01100032  RH  059%=      5-min Rain = 0
KKE1 142134Z 07009KT 11/03 A3013 RMK A01 T01100032  RH  059%=      5-min Rain = 0
KKE1 142135Z 08007KT 11/03 A3013 RMK A01 T01090032  RH  059%=      5-min Rain = 0
KKE1 142136Z 07007KT 11/03 A3013 RMK A01 T01100034  RH  059%=      5-min Rain = 0
KKE1 142137Z 07008KT 11/03 A3013 RMK A01 T01120034  RH  058%=      5-min Rain = 0
KKE1 142138Z 06008KT 11/03 A3013 RMK A01 T01130034  RH  059%=      5-min Rain = 0
KKE1 142139Z 07007KT 11/03 A3013 RMK A01 T01120034  RH  058%=      5-min Rain = 0
KKE1 142140Z 08009KT 11/04 A3013 RMK A01 T01140035  RH  058%=      5-min Rain = 0
KKE1 142141Z 08007KT 11/03 A3013 RMK A01 T01140033  RH  058%=      5-min Rain = 0
KKE1 142142Z 08009KT 11/03 A3013 RMK A01 T01140034  RH  058%=      5-min Rain = 0
KKE1 142143Z 08008KT 12/04 A3013 RMK A01 T01150035  RH  058%=      5-min Rain = 0
KKE1 142144Z 08008KT 12/03 A3013 RMK A01 T01160034  RH  057%=      5-min Rain = 0
KKE1 142145Z 08008KT 12/04 A3013 RMK A01 T01150035  RH  058%=      5-min Rain = 0
KKE1 142146Z 09007KT 12/04 A3013 RMK A01 T01150036  RH  058%=      5-min Rain = 0
KKE1 142147Z 08010KT 12/03 A3013 RMK A01 T01170034  RH  057%=      5-min Rain = 0
KKE1 142148Z 07008KT 11/03 A3013 RMK A01 T01140032  RH  057%=      5-min Rain = 0
KKE1 142149Z 08008KT 11/03 A3013 RMK A01 T01130033  RH  058%=      5-min Rain = 0
KKE1 142150Z 07007KT 11/03 A3013 RMK A01 T01130033  RH  058%=      5-min Rain = 0
KKE1 142151Z 07007KT 11/03 A3013 RMK A01 T01120032  RH  058%=      5-min Rain = 0
KKE1 142152Z 06006KT 11/03 A3013 RMK A01 T01130034  RH  058%=      5-min Rain = 0
KKE1 142153Z 07010KT 12/04 A3013 RMK A01 T01150035  RH  058%=      5-min Rain = 0
KKE1 142154Z 09010KT 12/04 A3013 RMK A01 T01160035  RH  058%=      5-min Rain = 0
KKE1 142155Z 08009KT 12/03 A3012 RMK A01 T01150033  RH  057%=      5-min Rain = 0
KKE1 142156Z 08007KT 11/03 A3012 RMK A01 T01140034  RH  058%=      5-min Rain = 0
KKE1 142157Z 07008KT 12/03 A3012 RMK A01 T01150034  RH  058%=      5-min Rain = 0
KKE1 142158Z 09008KT 12/04 A3012 RMK A01 T01160035  RH  057%=      5-min Rain = 0
KKE1 142159Z 09004KT 12/03 A3012 RMK A01 T01150033  RH  057%=      5-min Rain = 0
KKE1 142200Z 09006KT 12/04 A3012 RMK A01 T01150035  RH  058%=      5-min Rain = 0
KKE1 142201Z 08009KT 12/03 A3012 RMK A01 T01170034  RH  057%=      5-min Rain = 0
KKE1 142202Z 09009KT 12/03 A3012 RMK A01 T01160033  RH  057%=      5-min Rain = 0
KKE1 142203Z 10007KT 11/03 A3012 RMK A01 T01140032  RH  057%=      5-min Rain = 0
KKE1 142204Z 08007KT 11/03 A3012 RMK A01 T01130033  RH  058%=      5-min Rain = 0
KKE1 142205Z 08010KT 12/03 A3012 RMK A01 T01150034  RH  057%=      5-min Rain = 0
KKE1 142206Z 08009KT 12/03 A3012 RMK A01 T01150034  RH  057%=      5-min Rain = 0
KKE1 142207Z 08009KT 12/03 A3012 RMK A01 T01150033  RH  057%=      5-min Rain = 0
KKE1 142208Z 10010KT 11/03 A3012 RMK A01 T01140032  RH  057%=      5-min Rain = 0
KKE1 142209Z 10009KT 11/03 A3012 RMK A01 T01130031  RH  057%=      5-min Rain = 0
KKE1 142210Z 08008KT 11/03 A3012 RMK A01 T01110031  RH  058%=      5-min Rain = 0
KKE1 142211Z 08009KT 11/03 A3012 RMK A01 T01120032  RH  058%=      5-min Rain = 0
KKE1 142212Z 07009KT 11/03 A3012 RMK A01 T01130032  RH  057%=      5-min Rain = 0
KKE1 142213Z 08007KT 11/03 A3012 RMK A01 T01120031  RH  057%=      5-min Rain = 0
KKE1 142214Z 07008KT 11/03 A3012 RMK A01 T01120032  RH  058%=      5-min Rain = 0
KKE1 142215Z 08008KT 11/03 A3012 RMK A01 T01120031  RH  057%=      5-min Rain = 0
KKE1 142216Z 08008KT 11/03 A3012 RMK A01 T01110032  RH  058%=      5-min Rain = 0
KKE1 142217Z 09008KT 11/03 A3012 RMK A01 T01130033  RH  058%=      5-min Rain = 0
KKE1 142218Z 08008KT 11/03 A3012 RMK A01 T01140033  RH  057%=      5-min Rain = 0
KKE1 142219Z 08011KT 12/03 A3012 RMK A01 T01150032  RH  057%=      5-min Rain = 0
KKE1 142220Z 09008KT 11/03 A3012 RMK A01 T01130030  RH  057%=      5-min Rain = 0
KKE1 142221Z 08009KT 11/03 A3011 RMK A01 T01120031  RH  057%=      5-min Rain = 0
KKE1 142222Z 09008KT 11/03 A3011 RMK A01 T01120031  RH  057%=      5-min Rain = 0
KKE1 142223Z 09008KT 11/03 A3011 RMK A01 T01130031  RH  057%=      5-min Rain = 0
KKE1 142224Z 08008KT 11/03 A3011 RMK A01 T01140032  RH  057%=      5-min Rain = 0
KKE1 142225Z 08009KT 12/03 A3011 RMK A01 T01160033  RH  057%=      5-min Rain = 0
KKE1 142226Z 07009KT 12/03 A3011 RMK A01 T01170032  RH  056%=      5-min Rain = 0
KKE1 142227Z 08008KT 12/03 A3011 RMK A01 T01150031  RH  056%=      5-min Rain = 0
KKE1 142228Z 08007KT 11/03 A3011 RMK A01 T01140030  RH  056%=      5-min Rain = 0
KKE1 142229Z 08008KT 11/03 A3011 RMK A01 T01140031  RH  057%=      5-min Rain = 0
KKE1 142230Z 07010KT 11/03 A3011 RMK A01 T01140031  RH  057%=      5-min Rain = 0
KKE1 142231Z 06007KT 11/03 A3011 RMK A01 T01140031  RH  057%=      5-min Rain = 0
KKE1 142232Z 08009KT 11/03 A3011 RMK A01 T01140031  RH  057%=      5-min Rain = 0
KKE1 142233Z 08009KT 11/03 A3011 RMK A01 T01140030  RH  056%=      5-min Rain = 0
KKE1 142234Z 08009KT 11/03 A3011 RMK A01 T01130030  RH  057%=      5-min Rain = 0
KKE1 142235Z 07007KT 11/03 A3011 RMK A01 T01120030  RH  057%=      5-min Rain = 0
KKE1 142236Z 07006KT 11/03 A3011 RMK A01 T01110030  RH  057%=      5-min Rain = 0
KKE1 142237Z 09006KT 11/03 A3011 RMK A01 T01120031  RH  057%=      5-min Rain = 0
KKE1 142238Z 09006KT 11/03 A3011 RMK A01 T01130030  RH  057%=      5-min Rain = 0
KKE1 142239Z 08008KT 11/03 A3011 RMK A01 T01140031  RH  057%=      5-min Rain = 0
KKE1 142240Z 09010KT 12/03 A3011 RMK A01 T01150032  RH  057%=      5-min Rain = 0
KKE1 142241Z 08009KT 11/03 A3011 RMK A01 T01140031  RH  056%=      5-min Rain = 0
KKE1 142242Z 08008KT 11/03 A3011 RMK A01 T01130031  RH  057%=      5-min Rain = 0
KKE1 142243Z 08007KT 11/03 A3011 RMK A01 T01130032  RH  057%=      5-min Rain = 0
KKE1 142244Z 08009KT 11/03 A3011 RMK A01 T01140031  RH  057%=      5-min Rain = 0
KKE1 142245Z 08008KT 11/03 A3011 RMK A01 T01140031  RH  057%=      5-min Rain = 0
KKE1 142246Z 08008KT 11/03 A3011 RMK A01 T01140031  RH  057%=      5-min Rain = 0
KKE1 142247Z 08008KT 11/03 A3011 RMK A01 T01130030  RH  057%=      5-min Rain = 0
KKE1 142248Z 08008KT 11/03 A3011 RMK A01 T01120030  RH  057%=      5-min Rain = 0
KKE1 142249Z 08007KT 11/03 A3011 RMK A01 T01130032  RH  057%=      5-min Rain = 0
KKE1 142250Z 08008KT 11/03 A3011 RMK A01 T01140032  RH  057%=      5-min Rain = 0
KKE1 142251Z 08009KT 12/03 A3011 RMK A01 T01160032  RH  056%=      5-min Rain = 0
KKE1 142252Z 08009KT 12/03 A3011 RMK A01 T01150032  RH  057%=      5-min Rain = 0
KKE1 142253Z 08010KT 12/03 A3011 RMK A01 T01150032  RH  056%=      5-min Rain = 0
KKE1 142254Z 09008KT 11/03 A3011 RMK A01 T01140030  RH  056%=      5-min Rain = 0
KKE1 142255Z 09009KT 11/03 A3011 RMK A01 T01140032  RH  057%=      5-min Rain = 0
KKE1 142256Z 08010KT 12/03 A3011 RMK A01 T01150032  RH  057%=      5-min Rain = 0
KKE1 142257Z 07008KT 12/03 A3011 RMK A01 T01150031  RH  057%=      5-min Rain = 0
KKE1 142258Z 07011KT 12/03 A3011 RMK A01 T01150032  RH  057%=      5-min Rain = 0
KKE1 142259Z 07010KT 12/03 A3011 RMK A01 T01160032  RH  056%=      5-min Rain = 0
KKE1 142300Z 09008KT 12/03 A3011 RMK A01 T01160032  RH  056%=      5-min Rain = 0
KKE1 142301Z 07010G15KT 12/03 A3011 RMK A01 T01170034  RH  057%=      5-min Rain = 0
KKE1 142302Z 09011KT 12/03 A3011 RMK A01 T01170032  RH  056%=      5-min Rain = 0
KKE1 142303Z 08010KT 12/03 A3011 RMK A01 T01160032  RH  056%=      5-min Rain = 0
KKE1 142304Z 09006KT 12/03 A3011 RMK A01 T01150032  RH  057%=      5-min Rain = 0
KKE1 142305Z 08010KT 12/03 A3011 RMK A01 T01160033  RH  057%=      5-min Rain = 0
KKE1 142306Z 09008KT 12/03 A3011 RMK A01 T01160032  RH  056%=      5-min Rain = 0
KKE1 142307Z 10009KT 12/03 A3011 RMK A01 T01160032  RH  056%=      5-min Rain = 0
KKE1 142308Z 09010KT 12/03 A3011 RMK A01 T01160032  RH  056%=      5-min Rain = 0
KKE1 142309Z 09010KT 12/03 A3011 RMK A01 T01150031  RH  056%=      5-min Rain = 0
KKE1 142310Z 08011KT 11/03 A3011 RMK A01 T01140031  RH  057%=      5-min Rain = 0
KKE1 142311Z 08009KT 12/03 A3011 RMK A01 T01150033  RH  057%=      5-min Rain = 0
KKE1 142312Z 08009KT 12/03 A3011 RMK A01 T01150031  RH  056%=      5-min Rain = 0
KKE1 142313Z 08009KT 11/03 A3011 RMK A01 T01130030  RH  057%=      5-min Rain = 0
KKE1 142314Z 08006KT 11/03 A3011 RMK A01 T01120031  RH  057%=      5-min Rain = 0
KKE1 142315Z 07006KT 11/03 A3011 RMK A01 T01130033  RH  058%=      5-min Rain = 0
KKE1 142316Z 08007KT 12/03 A3011 RMK A01 T01150033  RH  057%=      5-min Rain = 0
KKE1 142317Z 08009KT 12/03 A3011 RMK A01 T01160034  RH  057%=      5-min Rain = 0
KKE1 142318Z 08010KT 12/03 A3011 RMK A01 T01170032  RH  056%=      5-min Rain = 0
KKE1 142319Z 08011KT 12/03 A3011 RMK A01 T01170032  RH  056%=      5-min Rain = 0
KKE1 142320Z 09011KT 12/03 A3011 RMK A01 T01160031  RH  056%=      5-min Rain = 0
KKE1 142321Z 09009KT 12/03 A3011 RMK A01 T01150031  RH  056%=      5-min Rain = 0
KKE1 142322Z 09010KT 11/03 A3011 RMK A01 T01140032  RH  057%=      5-min Rain = 0
KKE1 142323Z 09008KT 12/03 A3011 RMK A01 T01150032  RH  057%=      5-min Rain = 0
KKE1 142324Z 09011KT 12/03 A3011 RMK A01 T01160032  RH  057%=      5-min Rain = 0
KKE1 142325Z 08008KT 12/03 A3011 RMK A01 T01150031  RH  056%=      5-min Rain = 0
KKE1 142326Z 08009KT 11/03 A3011 RMK A01 T01140033  RH  057%=      5-min Rain = 0
KKE1 142327Z 08009KT 12/03 A3011 RMK A01 T01150032  RH  057%=      5-min Rain = 0
KKE1 142328Z 08010KT 11/03 A3011 RMK A01 T01140031  RH  057%=      5-min Rain = 0
KKE1 142329Z 07011KT 11/03 A3011 RMK A01 T01130031  RH  057%=      5-min Rain = 0
KKE1 142330Z 08011KT 11/03 A3011 RMK A01 T01130031  RH  057%=      5-min Rain = 0
KKE1 142331Z 09009KT 11/03 A3011 RMK A01 T01120031  RH  057%=      5-min Rain = 0
KKE1 142332Z 09008KT 11/03 A3011 RMK A01 T01130032  RH  057%=      5-min Rain = 0
KKE1 142333Z 10008KT 11/03 A3011 RMK A01 T01140033  RH  057%=      5-min Rain = 0
KKE1 142334Z 10009KT 11/03 A3011 RMK A01 T01140032  RH  057%=      5-min Rain = 0
KKE1 142335Z 09008KT 11/03 A3011 RMK A01 T01140032  RH  057%=      5-min Rain = 0
KKE1 142336Z 09009KT 11/03 A3011 RMK A01 T01140032  RH  057%=      5-min Rain = 0
KKE1 142337Z 09009KT 11/03 A3011 RMK A01 T01140033  RH  058%=      5-min Rain = 0
KKE1 142338Z 08007KT 11/03 A3011 RMK A01 T01140033  RH  057%=      5-min Rain = 0
KKE1 142339Z 08010KT 11/03 A3011 RMK A01 T01140032  RH  057%=      5-min Rain = 0
KKE1 142340Z 08010KT 11/03 A3011 RMK A01 T01130031  RH  057%=      5-min Rain = 0
KKE1 142341Z 09009KT 11/03 A3011 RMK A01 T01120032  RH  058%=      5-min Rain = 0
KKE1 142342Z 09009KT 11/03 A3011 RMK A01 T01120032  RH  058%=      5-min Rain = 0
KKE1 142343Z 08009KT 11/03 A3011 RMK A01 T01120032  RH  058%=      5-min Rain = 0
KKE1 142344Z 09010KT 11/03 A3011 RMK A01 T01110031  RH  058%=      5-min Rain = 0
KKE1 142345Z 08008KT 11/03 A3011 RMK A01 T01110032  RH  058%=      5-min Rain = 0
KKE1 142346Z 09010KT 11/03 A3012 RMK A01 T01110032  RH  058%=      5-min Rain = 0
KKE1 142347Z 09007KT 11/03 A3012 RMK A01 T01110031  RH  058%=      5-min Rain = 0
KKE1 142348Z 09007KT 11/03 A3012 RMK A01 T01100032  RH  058%=      5-min Rain = 0
KKE1 142349Z 09009KT 11/03 A3012 RMK A01 T01100032  RH  058%=      5-min Rain = 0
KKE1 142350Z 09010KT 11/03 A3012 RMK A01 T01100031  RH  058%=      5-min Rain = 0
KKE1 142351Z 09008KT 11/03 A3012 RMK A01 T01090030  RH  058%=      5-min Rain = 0
KKE1 142352Z 09007KT 11/03 A3012 RMK A01 T01090031  RH  059%=      5-min Rain = 0
KKE1 142353Z 10007KT 11/03 A3012 RMK A01 T01100032  RH  059%=      5-min Rain = 0
KKE1 142354Z 09007KT 11/03 A3012 RMK A01 T01100032  RH  059%=      5-min Rain = 0
KKE1 142355Z 09008KT 11/03 A3012 RMK A01 T01100032  RH  059%=      5-min Rain = 0
KKE1 142356Z 09010KT 11/03 A3012 RMK A01 T01100031  RH  058%=      5-min Rain = 0
KKE1 142357Z 08010KT 11/03 A3012 RMK A01 T01090030  RH  058%=      5-min Rain = 0
KKE1 142358Z 08009KT 11/03 A3012 RMK A01 T01080031  RH  059%=      5-min Rain = 0
KKE1 142359Z 08009KT 11/03 A3012 RMK A01 T01080031  RH  059%=      5-min Rain = 0
KKE1 150000Z 08009KT 11/03 A3011 RMK A01 T01070031  RH  059%=      5-min Rain = 0
KKE1 150001Z 08009KT 11/03 A3011 RMK A01 T01070031  RH  059%=      5-min Rain = 0
KKE1 150002Z 08008KT 11/03 A3011 RMK A01 T01070031  RH  059%=      5-min Rain = 0
KKE1 150003Z 07009KT 11/03 A3011 RMK A01 T01070031  RH  060%=      5-min Rain = 0
KKE1 150004Z 08010KT 11/03 A3011 RMK A01 T01060030  RH  059%=      5-min Rain = 0
KKE1 150005Z 07009KT 11/03 A3011 RMK A01 T01050030  RH  059%=      5-min Rain = 0
KKE1 150006Z 07008KT 11/03 A3011 RMK A01 T01050030  RH  060%=      5-min Rain = 0
KKE1 150007Z 07009KT 11/03 A3011 RMK A01 T01050030  RH  060%=      5-min Rain = 0
KKE1 150008Z 06008KT 11/03 A3011 RMK A01 T01050030  RH  060%=      5-min Rain = 0
KKE1 150009Z 06007KT 11/03 A3011 RMK A01 T01050030  RH  060%=      5-min Rain = 0
KKE1 150010Z 07009KT 11/03 A3011 RMK A01 T01060031  RH  060%=      5-min Rain = 0
KKE1 150011Z 07009KT 11/03 A3011 RMK A01 T01060031  RH  060%=      5-min Rain = 0
KKE1 150012Z 08008KT 11/03 A3011 RMK A01 T01060032  RH  060%=      5-min Rain = 0
KKE1 150013Z 08007KT 11/03 A3011 RMK A01 T01050033  RH  061%=      5-min Rain = 0
KKE1 150014Z 09008KT 11/03 A3011 RMK A01 T01050033  RH  061%=      5-min Rain = 0
KKE1 150015Z 10008KT 11/03 A3011 RMK A01 T01060033  RH  061%=      5-min Rain = 0
KKE1 150016Z 10006KT 11/03 A3011 RMK A01 T01060033  RH  061%=      5-min Rain = 0
KKE1 150017Z 10007KT 11/03 A3011 RMK A01 T01060033  RH  061%=      5-min Rain = 0
KKE1 150018Z 11009KT 11/03 A3011 RMK A01 T01060033  RH  061%=      5-min Rain = 0
KKE1 150019Z 11008KT 11/03 A3012 RMK A01 T01060032  RH  060%=      5-min Rain = 0
KKE1 150020Z 11009KT 11/03 A3012 RMK A01 T01060033  RH  060%=      5-min Rain = 0
KKE1 150021Z 11008KT 11/03 A3012 RMK A01 T01060032  RH  060%=      5-min Rain = 0
KKE1 150022Z 11007KT 11/03 A3012 RMK A01 T01060032  RH  060%=      5-min Rain = 0
KKE1 150023Z 11008KT 11/03 A3012 RMK A01 T01050032  RH  061%=      5-min Rain = 0
KKE1 150024Z 11010KT 11/03 A3011 RMK A01 T01050032  RH  061%=      5-min Rain = 0
KKE1 150025Z 11009KT 10/03 A3011 RMK A01 T01040032  RH  061%=      5-min Rain = 0
KKE1 150026Z 11008KT 10/03 A3011 RMK A01 T01040032  RH  061%=      5-min Rain = 0
KKE1 150027Z 11007KT 10/03 A3011 RMK A01 T01040032  RH  061%=      5-min Rain = 0
KKE1 150028Z 11007KT 10/03 A3011 RMK A01 T01030033  RH  062%=      5-min Rain = 0
KKE1 150029Z 11006KT 10/03 A3011 RMK A01 T01030032  RH  062%=      5-min Rain = 0
KKE1 150030Z 11006KT 10/03 A3011 RMK A01 T01020033  RH  062%=      5-min Rain = 0
KKE1 150031Z 12006KT 10/03 A3011 RMK A01 T01020033  RH  062%=      5-min Rain = 0
KKE1 150032Z 12007KT 10/03 A3011 RMK A01 T01010033  RH  062%=      5-min Rain = 0
KKE1 150033Z 13005KT 10/03 A3011 RMK A01 T01010032  RH  062%=      5-min Rain = 0
KKE1 150034Z 13006KT 10/03 A3011 RMK A01 T01000032  RH  063%=      5-min Rain = 0
KKE1 150035Z 13006KT 10/03 A3011 RMK A01 T01000033  RH  063%=      5-min Rain = 0
KKE1 150036Z 12006KT 10/03 A3011 RMK A01 T01000032  RH  063%=      5-min Rain = 0
KKE1 150037Z 13007KT 10/03 A3011 RMK A01 T01000032  RH  063%=      5-min Rain = 0
KKE1 150038Z 12006KT 10/03 A3011 RMK A01 T00990032  RH  063%=      5-min Rain = 0
KKE1 150039Z 12006KT 10/03 A3011 RMK A01 T00990032  RH  063%=      5-min Rain = 0
KKE1 150040Z 13008KT 10/03 A3011 RMK A01 T00990033  RH  063%=      5-min Rain = 0
KKE1 150041Z 13008KT 10/03 A3011 RMK A01 T00990032  RH  063%=      5-min Rain = 0
KKE1 150042Z 12009KT 10/03 A3011 RMK A01 T00980032  RH  063%=      5-min Rain = 0
KKE1 150043Z 12008KT 10/03 A3011 RMK A01 T00980032  RH  063%=      5-min Rain = 0
KKE1 150044Z 12008KT 10/03 A3011 RMK A01 T00980032  RH  063%=      5-min Rain = 0
KKE1 150045Z 12008KT 10/03 A3011 RMK A01 T00980032  RH  064%=      5-min Rain = 0
KKE1 150046Z 12009KT 10/03 A3011 RMK A01 T00970032  RH  064%=      5-min Rain = 0
KKE1 150047Z 12011KT 10/03 A3011 RMK A01 T00970032  RH  064%=      5-min Rain = 0
KKE1 150048Z 12011KT 10/03 A3011 RMK A01 T00970032  RH  064%=      5-min Rain = 0
KKE1 150049Z 13011KT 10/03 A3011 RMK A01 T00970031  RH  064%=      5-min Rain = 0
KKE1 150050Z 12011KT 10/03 A3011 RMK A01 T00970031  RH  063%=      5-min Rain = 0
KKE1 150051Z 12011KT 10/03 A3011 RMK A01 T00970032  RH  064%=      5-min Rain = 0
KKE1 150052Z 12012KT 10/03 A3011 RMK A01 T00970032  RH  064%=      5-min Rain = 0
KKE1 150053Z 12011KT 10/03 A3011 RMK A01 T00970032  RH  064%=      5-min Rain = 0
KKE1 150054Z 12010KT 10/03 A3011 RMK A01 T00970032  RH  064%=      5-min Rain = 0
KKE1 150055Z 11010KT 10/03 A3011 RMK A01 T00950032  RH  065%=      5-min Rain = 0
KKE1 150056Z 11010KT 09/03 A3011 RMK A01 T00940033  RH  065%=      5-min Rain = 0
KKE1 150057Z 11010KT 09/03 A3011 RMK A01 T00930033  RH  066%=      5-min Rain = 0
KKE1 150058Z 11009KT 09/03 A3011 RMK A01 T00920033  RH  066%=      5-min Rain = 0
KKE1 150059Z 12010KT 09/03 A3011 RMK A01 T00920033  RH  067%=      5-min Rain = 0
KKE1 150100Z 12010KT 09/03 A3011 RMK A01 T00920033  RH  067%=      5-min Rain = 0
KKE1 150101Z 11010KT 09/03 A3011 RMK A01 T00910033  RH  067%=      5-min Rain = 0
KKE1 150102Z 11011KT 09/03 A3011 RMK A01 T00910033  RH  067%=      5-min Rain = 0
KKE1 150103Z 12011KT 09/03 A3011 RMK A01 T00910033  RH  067%=      5-min Rain = 0
KKE1 150104Z 12010KT 09/03 A3011 RMK A01 T00910032  RH  067%=      5-min Rain = 0
KKE1 150105Z 12010KT 09/03 A3011 RMK A01 T00910032  RH  066%=      5-min Rain = 0
KKE1 150106Z 12010KT 09/03 A3011 RMK A01 T00920032  RH  066%=      5-min Rain = 0
KKE1 150107Z 12010KT 09/03 A3011 RMK A01 T00920032  RH  066%=      5-min Rain = 0
KKE1 150108Z 12010KT 09/03 A3011 RMK A01 T00920032  RH  066%=      5-min Rain = 0
KKE1 150109Z 12010KT 09/03 A3012 RMK A01 T00920031  RH  066%=      5-min Rain = 0
KKE1 150110Z 11010KT 09/03 A3012 RMK A01 T00930031  RH  065%=      5-min Rain = 0
KKE1 150111Z 12009KT 09/03 A3012 RMK A01 T00930032  RH  066%=      5-min Rain = 0
KKE1 150112Z 11010KT 09/03 A3012 RMK A01 T00920032  RH  066%=      5-min Rain = 0
KKE1 150113Z 11010KT 09/03 A3012 RMK A01 T00920032  RH  066%=      5-min Rain = 0
KKE1 150114Z 11009KT 09/03 A3012 RMK A01 T00920032  RH  066%=      5-min Rain = 0
KKE1 150115Z 11009KT 09/03 A3012 RMK A01 T00900032  RH  067%=      5-min Rain = 0
KKE1 150116Z 11010KT 09/03 A3012 RMK A01 T00900032  RH  067%=      5-min Rain = 0
KKE1 150117Z 11010KT 09/03 A3012 RMK A01 T00900031  RH  067%=      5-min Rain = 0
KKE1 150118Z 11009KT 09/03 A3012 RMK A01 T00900032  RH  067%=      5-min Rain = 0
KKE1 150119Z 11010KT 09/03 A3012 RMK A01 T00900031  RH  067%=      5-min Rain = 0
KKE1 150120Z 11010KT 09/03 A3012 RMK A01 T00900031  RH  067%=      5-min Rain = 0
KKE1 150121Z 11010KT 09/03 A3012 RMK A01 T00900032  RH  067%=      5-min Rain = 0
KKE1 150122Z 11011KT 09/03 A3012 RMK A01 T00890031  RH  067%=      5-min Rain = 0
KKE1 150123Z 11011KT 09/03 A3012 RMK A01 T00890031  RH  067%=      5-min Rain = 0
KKE1 150124Z 11011KT 09/03 A3012 RMK A01 T00890031  RH  067%=      5-min Rain = 0
KKE1 150125Z 11011KT 09/03 A3012 RMK A01 T00890031  RH  067%=      5-min Rain = 0
KKE1 150126Z 11010KT 09/03 A3012 RMK A01 T00890031  RH  067%=      5-min Rain = 0
KKE1 150127Z 11010KT 09/03 A3012 RMK A01 T00890031  RH  067%=      5-min Rain = 0
KKE1 150128Z 11010KT 09/03 A3012 RMK A01 T00890031  RH  067%=      5-min Rain = 0
KKE1 150129Z 11010KT 09/03 A3012 RMK A01 T00890031  RH  067%=      5-min Rain = 0
KKE1 150130Z 11010KT 09/03 A3012 RMK A01 T00890031  RH  067%=      5-min Rain = 0
KKE1 150131Z 11010KT 09/03 A3012 RMK A01 T00890031  RH  067%=      5-min Rain = 0
KKE1 150132Z 12009KT 09/03 A3012 RMK A01 T00890031  RH  067%=      5-min Rain = 0
KKE1 150133Z 12009KT 09/03 A3012 RMK A01 T00880031  RH  067%=      5-min Rain = 0
KKE1 150134Z 12009KT 09/03 A3012 RMK A01 T00880031  RH  067%=      5-min Rain = 0
KKE1 150135Z 12008KT 09/03 A3012 RMK A01 T00880031  RH  068%=      5-min Rain = 0
KKE1 150136Z 12008KT 09/03 A3012 RMK A01 T00870031  RH  068%=      5-min Rain = 0
KKE1 150137Z 12008KT 09/03 A3012 RMK A01 T00870031  RH  068%=      5-min Rain = 0
KKE1 150138Z 13008KT 09/03 A3012 RMK A01 T00870031  RH  068%=      5-min Rain = 0
KKE1 150139Z 12008KT 09/03 A3012 RMK A01 T00860031  RH  068%=      5-min Rain = 0
KKE1 150140Z 13009KT 09/03 A3012 RMK A01 T00870030  RH  068%=      5-min Rain = 0
KKE1 150141Z 13008KT 09/03 A3012 RMK A01 T00870030  RH  067%=      5-min Rain = 0
KKE1 150142Z 13008KT 09/03 A3012 RMK A01 T00870030  RH  067%=      5-min Rain = 0
KKE1 150143Z 13008KT 09/03 A3012 RMK A01 T00870031  RH  068%=      5-min Rain = 0
KKE1 150144Z 13008KT 09/03 A3012 RMK A01 T00870031  RH  068%=      5-min Rain = 0
KKE1 150145Z 14007KT 09/03 A3012 RMK A01 T00870030  RH  067%=      5-min Rain = 0
KKE1 150146Z 13007KT 09/03 A3012 RMK A01 T00880030  RH  067%=      5-min Rain = 0
KKE1 150147Z 13007KT 09/03 A3012 RMK A01 T00890030  RH  066%=      5-min Rain = 0
KKE1 150148Z 13006KT 09/03 A3012 RMK A01 T00900030  RH  066%=      5-min Rain = 0
KKE1 150149Z 13006KT 09/03 A3012 RMK A01 T00900030  RH  066%=      5-min Rain = 0
KKE1 150150Z 12005KT 09/03 A3012 RMK A01 T00900030  RH  066%=      5-min Rain = 0
KKE1 150151Z 11004KT 09/03 A3012 RMK A01 T00900030  RH  066%=      5-min Rain = 0
KKE1 150152Z 10004KT 09/03 A3012 RMK A01 T00890030  RH  067%=      5-min Rain = 0
KKE1 150153Z 10003KT 09/03 A3012 RMK A01 T00880030  RH  067%=      5-min Rain = 0
KKE1 150154Z 09003KT 09/03 A3013 RMK A01 T00870030  RH  067%=      5-min Rain = 0
KKE1 150155Z 08003KT 09/03 A3013 RMK A01 T00860030  RH  068%=      5-min Rain = 0
KKE1 150156Z 08002KT 09/03 A3013 RMK A01 T00850030  RH  069%=      5-min Rain = 0
KKE1 150157Z 06003KT 08/03 A3013 RMK A01 T00840030  RH  069%=      5-min Rain = 0
KKE1 150158Z 07002KT 08/03 A3013 RMK A01 T00830030  RH  069%=      5-min Rain = 0
KKE1 150159Z 08003KT 08/03 A3013 RMK A01 T00820030  RH  070%=      5-min Rain = 0
KKE1 150200Z 08002KT 08/03 A3013 RMK A01 T00810030  RH  070%=      5-min Rain = 0
KKE1 150201Z 11001KT 08/03 A3013 RMK A01 T00810030  RH  070%=      5-min Rain = 0
KKE1 150202Z 07001KT 08/03 A3013 RMK A01 T00800030  RH  070%=      5-min Rain = 0
KKE1 150203Z 07002KT 08/03 A3013 RMK A01 T00800030  RH  071%=      5-min Rain = 0
KKE1 150204Z 07004KT 08/03 A3013 RMK A01 T00790029  RH  071%=      5-min Rain = 0
KKE1 150205Z 07004KT 08/03 A3013 RMK A01 T00810030  RH  070%=      5-min Rain = 0
KKE1 150206Z 06005KT 08/03 A3013 RMK A01 T00820030  RH  070%=      5-min Rain = 0
KKE1 150207Z 07004KT 08/03 A3013 RMK A01 T00820030  RH  070%=      5-min Rain = 0
KKE1 150208Z 06003KT 08/03 A3013 RMK A01 T00810030  RH  070%=      5-min Rain = 0
KKE1 150209Z 07002KT 08/03 A3012 RMK A01 T00810030  RH  070%=      5-min Rain = 0
KKE1 150210Z 08004KT 08/03 A3012 RMK A01 T00800030  RH  071%=      5-min Rain = 0
KKE1 150211Z 10005KT 08/03 A3012 RMK A01 T00800030  RH  071%=      5-min Rain = 0
KKE1 150212Z 10005KT 08/03 A3013 RMK A01 T00800030  RH  070%=      5-min Rain = 0
KKE1 150213Z 09003KT 08/03 A3013 RMK A01 T00820030  RH  070%=      5-min Rain = 0
KKE1 150214Z 08003KT 08/03 A3013 RMK A01 T00830030  RH  069%=      5-min Rain = 0
KKE1 150215Z 06003KT 08/03 A3013 RMK A01 T00830030  RH  069%=      5-min Rain = 0
KKE1 150216Z 05003KT 08/03 A3013 RMK A01 T00830030  RH  069%=      5-min Rain = 0
KKE1 150217Z 06002KT 08/03 A3013 RMK A01 T00820030  RH  070%=      5-min Rain = 0
KKE1 150218Z 07002KT 08/03 A3013 RMK A01 T00810030  RH  070%=      5-min Rain = 0
KKE1 150219Z 07003KT 08/03 A3013 RMK A01 T00800030  RH  070%=      5-min Rain = 0
KKE1 150220Z 08004KT 08/03 A3013 RMK A01 T00800030  RH  071%=      5-min Rain = 0
KKE1 150221Z 07005KT 08/03 A3013 RMK A01 T00790030  RH  071%=      5-min Rain = 0
KKE1 150222Z 06005KT 08/03 A3013 RMK A01 T00800030  RH  071%=      5-min Rain = 0
KKE1 150223Z 06006KT 08/03 A3013 RMK A01 T00800030  RH  070%=      5-min Rain = 0
KKE1 150224Z 06006KT 08/03 A3013 RMK A01 T00810030  RH  070%=      5-min Rain = 0
KKE1 150225Z 07006KT 08/03 A3013 RMK A01 T00830030  RH  069%=      5-min Rain = 0
KKE1 150226Z 08005KT 08/03 A3013 RMK A01 T00840030  RH  069%=      5-min Rain = 0
KKE1 150227Z 09004KT 08/03 A3013 RMK A01 T00840030  RH  069%=      5-min Rain = 0
KKE1 150228Z 10004KT 08/03 A3013 RMK A01 T00840030  RH  069%=      5-min Rain = 0
KKE1 150229Z 09004KT 09/03 A3014 RMK A01 T00850030  RH  068%=      5-min Rain = 0
KKE1 150230Z 10004KT 09/03 A3013 RMK A01 T00860030  RH  068%=      5-min Rain = 0
KKE1 150231Z 10005KT 09/03 A3013 RMK A01 T00850030  RH  068%=      5-min Rain = 0
KKE1 150232Z 11005KT 09/03 A3013 RMK A01 T00850029  RH  068%=      5-min Rain = 0
KKE1 150233Z 10005KT 09/03 A3013 RMK A01 T00860029  RH  068%=      5-min Rain = 0
KKE1 150234Z 09006KT 09/03 A3013 RMK A01 T00860029  RH  067%=      5-min Rain = 0
KKE1 150235Z 10006KT 09/03 A3013 RMK A01 T00850029  RH  068%=      5-min Rain = 0
KKE1 150236Z 09006KT 09/03 A3014 RMK A01 T00850029  RH  068%=      5-min Rain = 0
KKE1 150237Z 10005KT 09/03 A3014 RMK A01 T00850029  RH  068%=      5-min Rain = 0
KKE1 150238Z 13003KT 09/03 A3014 RMK A01 T00850030  RH  068%=      5-min Rain = 0
KKE1 150239Z 12004KT 08/03 A3014 RMK A01 T00830030  RH  069%=      5-min Rain = 0
KKE1 150240Z 12005KT 08/03 A3014 RMK A01 T00820030  RH  070%=      5-min Rain = 0
KKE1 150241Z 11005KT 08/03 A3014 RMK A01 T00820030  RH  070%=      5-min Rain = 0
KKE1 150242Z 11003KT 08/03 A3014 RMK A01 T00820029  RH  070%=      5-min Rain = 0
KKE1 150243Z 13002KT 08/03 A3014 RMK A01 T00810030  RH  070%=      5-min Rain = 0
KKE1 150244Z 19003KT 08/03 A3014 RMK A01 T00790030  RH  071%=      5-min Rain = 0
KKE1 150245Z 20004KT 08/03 A3014 RMK A01 T00770029  RH  072%=      5-min Rain = 0
KKE1 150246Z 22004KT 08/03 A3014 RMK A01 T00760029  RH  072%=      5-min Rain = 0
KKE1 150247Z 23004KT 08/03 A3014 RMK A01 T00760030  RH  072%=      5-min Rain = 0
KKE1 150248Z 21003KT 08/03 A3015 RMK A01 T00770030  RH  072%=      5-min Rain = 0
KKE1 150249Z 22004KT 08/03 A3015 RMK A01 T00770030  RH  072%=      5-min Rain = 0
KKE1 150250Z 22003KT 08/03 A3015 RMK A01 T00760030  RH  073%=      5-min Rain = 0
KKE1 150251Z 22003KT 08/03 A3015 RMK A01 T00760030  RH  073%=      5-min Rain = 0
KKE1 150252Z 22003KT 07/03 A3015 RMK A01 T00740029  RH  073%=      5-min Rain = 0
KKE1 150253Z 21003KT 07/03 A3015 RMK A01 T00740029  RH  073%=      5-min Rain = 0
KKE1 150254Z 21003KT 07/03 A3015 RMK A01 T00720029  RH  074%=      5-min Rain = 0
KKE1 150255Z 21004KT 07/03 A3015 RMK A01 T00710028  RH  074%=      5-min Rain = 0
KKE1 150256Z 21003KT 07/03 A3015 RMK A01 T00700028  RH  075%=      5-min Rain = 0
KKE1 150257Z 22004KT 07/03 A3015 RMK A01 T00690028  RH  075%=      5-min Rain = 0
KKE1 150258Z 20005KT 07/03 A3015 RMK A01 T00680029  RH  076%=      5-min Rain = 0
KKE1 150259Z 20005KT 07/03 A3015 RMK A01 T00680029  RH  076%=      5-min Rain = 0
KKE1 150300Z 19004KT 07/03 A3015 RMK A01 T00680029  RH  076%=      5-min Rain = 0
KKE1 150301Z 18003KT 07/03 A3015 RMK A01 T00670028  RH  076%=      5-min Rain = 0
KKE1 150302Z 18003KT 07/03 A3015 RMK A01 T00660028  RH  077%=      5-min Rain = 0
KKE1 150303Z 19003KT 07/03 A3015 RMK A01 T00650028  RH  077%=      5-min Rain = 0
KKE1 150304Z 19002KT 07/03 A3015 RMK A01 T00650028  RH  077%=      5-min Rain = 0
KKE1 150305Z 18002KT 07/03 A3015 RMK A01 T00650028  RH  077%=      5-min Rain = 0
KKE1 150306Z 17001KT 06/03 A3015 RMK A01 T00640028  RH  078%=      5-min Rain = 0
KKE1 150307Z 19001KT 06/03 A3015 RMK A01 T00640028  RH  078%=      5-min Rain = 0
KKE1 150308Z 19001KT 06/03 A3015 RMK A01 T00630028  RH  078%=      5-min Rain = 0
KKE1 150309Z 00000KT 06/03 A3015 RMK A01 T00620027  RH  078%=      5-min Rain = 0
KKE1 150310Z 23000KT 06/03 A3015 RMK A01 T00610027  RH  079%=      5-min Rain = 0
KKE1 150311Z 21001KT 06/03 A3015 RMK A01 T00610028  RH  079%=      5-min Rain = 0
KKE1 150312Z 20001KT 06/03 A3015 RMK A01 T00610029  RH  080%=      5-min Rain = 0
KKE1 150313Z 20000KT 06/03 A3015 RMK A01 T00610028  RH  080%=      5-min Rain = 0
KKE1 150314Z 20000KT 06/03 A3015 RMK A01 T00610028  RH  079%=      5-min Rain = 0
KKE1 150315Z 17000KT 06/03 A3015 RMK A01 T00610028  RH  079%=      5-min Rain = 0
KKE1 150316Z 17000KT 06/03 A3015 RMK A01 T00610028  RH  079%=      5-min Rain = 0
KKE1 150317Z 00000KT 06/03 A3015 RMK A01 T00610028  RH  079%=      5-min Rain = 0
KKE1 150318Z 18000KT 06/03 A3015 RMK A01 T00610028  RH  079%=      5-min Rain = 0
KKE1 150319Z 33002KT 06/03 A3015 RMK A01 T00610028  RH  079%=      5-min Rain = 0
KKE1 150320Z 35003KT 06/03 A3015 RMK A01 T00590026  RH  079%=      5-min Rain = 0
KKE1 150321Z 35004KT 06/03 A3015 RMK A01 T00580026  RH  080%=      5-min Rain = 0
KKE1 150322Z 35004KT 06/03 A3015 RMK A01 T00580027  RH  081%=      5-min Rain = 0
KKE1 150323Z 33004KT 06/03 A3015 RMK A01 T00580027  RH  081%=      5-min Rain = 0
KKE1 150324Z 33004KT 06/03 A3015 RMK A01 T00570027  RH  081%=      5-min Rain = 0
KKE1 150325Z 32004KT 06/03 A3015 RMK A01 T00570027  RH  081%=      5-min Rain = 0
KKE1 150326Z 31003KT 06/03 A3015 RMK A01 T00560027  RH  081%=      5-min Rain = 0
KKE1 150327Z 30003KT 06/03 A3015 RMK A01 T00560027  RH  082%=      5-min Rain = 0
KKE1 150328Z 28003KT 06/03 A3015 RMK A01 T00560026  RH  081%=      5-min Rain = 0
KKE1 150329Z 27003KT 05/03 A3015 RMK A01 T00540025  RH  081%=      5-min Rain = 0
KKE1 150330Z 26004KT 05/03 A3015 RMK A01 T00530025  RH  082%=      5-min Rain = 0
KKE1 150331Z 25004KT 05/03 A3015 RMK A01 T00530026  RH  083%=      5-min Rain = 0
KKE1 150332Z 24004KT 05/03 A3015 RMK A01 T00540027  RH  083%=      5-min Rain = 0
KKE1 150333Z 23004KT 06/03 A3015 RMK A01 T00550028  RH  083%=      5-min Rain = 0
KKE1 150334Z 23004KT 06/03 A3015 RMK A01 T00560028  RH  082%=      5-min Rain = 0
KKE1 150335Z 23005KT 06/03 A3015 RMK A01 T00570028  RH  082%=      5-min Rain = 0
KKE1 150336Z 23005KT 06/03 A3015 RMK A01 T00580028  RH  081%=      5-min Rain = 0
KKE1 150337Z 24005KT 06/03 A3015 RMK A01 T00580028  RH  081%=      5-min Rain = 0
KKE1 150338Z 24003KT 06/03 A3015 RMK A01 T00590029  RH  081%=      5-min Rain = 0
KKE1 150339Z 25003KT 06/03 A3015 RMK A01 T00580028  RH  081%=      5-min Rain = 0
KKE1 150340Z 26003KT 06/03 A3015 RMK A01 T00570027  RH  081%=      5-min Rain = 0
KKE1 150341Z 26004KT 06/03 A3015 RMK A01 T00560026  RH  081%=      5-min Rain = 0
KKE1 150342Z 26005KT 05/02 A3015 RMK A01 T00540024  RH  081%=      5-min Rain = 0
KKE1 150343Z 26005KT 05/02 A3015 RMK A01 T00520024  RH  082%=      5-min Rain = 0
KKE1 150344Z 27005KT 05/03 A3015 RMK A01 T00510025  RH  083%=      5-min Rain = 0
KKE1 150345Z 26006KT 05/03 A3015 RMK A01 T00510026  RH  084%=      5-min Rain = 0
KKE1 150346Z 26006KT 05/03 A3014 RMK A01 T00510026  RH  084%=      5-min Rain = 0
KKE1 150347Z 25007KT 05/03 A3014 RMK A01 T00520027  RH  084%=      5-min Rain = 0
KKE1 150348Z 25007KT 05/03 A3014 RMK A01 T00530027  RH  084%=      5-min Rain = 0
KKE1 150349Z 25008KT 05/03 A3014 RMK A01 T00520027  RH  084%=      5-min Rain = 0
KKE1 150350Z 25007KT 05/03 A3014 RMK A01 T00530027  RH  084%=      5-min Rain = 0
KKE1 150351Z 25006KT 05/03 A3014 RMK A01 T00530028  RH  083%=      5-min Rain = 0
KKE1 150352Z 26006KT 05/03 A3014 RMK A01 T00540028  RH  083%=      5-min Rain = 0
KKE1 150353Z 25006KT 05/03 A3014 RMK A01 T00540027  RH  083%=      5-min Rain = 0
KKE1 150354Z 25004KT 05/03 A3014 RMK A01 T00540027  RH  083%=      5-min Rain = 0
KKE1 150355Z 26005KT 05/03 A3014 RMK A01 T00530027  RH  083%=      5-min Rain = 0
KKE1 150356Z 26004KT 05/03 A3014 RMK A01 T00530027  RH  083%=      5-min Rain = 0
KKE1 150357Z 26003KT 05/03 A3014 RMK A01 T00540027  RH  083%=      5-min Rain = 0
KKE1 150358Z 25004KT 05/03 A3014 RMK A01 T00530027  RH  083%=      5-min Rain = 0
KKE1 150359Z 25004KT 05/03 A3014 RMK A01 T00530027  RH  083%=      5-min Rain = 0
KKE1 150400Z 26004KT 05/03 A3014 RMK A01 T00520027  RH  084%=      5-min Rain = 0
KKE1 150401Z 26004KT 05/03 A3014 RMK A01 T00530027  RH  084%=      5-min Rain = 0
KKE1 150402Z 25004KT 05/03 A3014 RMK A01 T00520026  RH  084%=      5-min Rain = 0
KKE1 150403Z 25004KT 05/03 A3014 RMK A01 T00510026  RH  084%=      5-min Rain = 0
KKE1 150404Z 25003KT 05/03 A3014 RMK A01 T00510026  RH  084%=      5-min Rain = 0
KKE1 150405Z 25004KT 05/03 A3014 RMK A01 T00510026  RH  084%=      5-min Rain = 0
KKE1 150406Z 24004KT 05/03 A3014 RMK A01 T00510026  RH  084%=      5-min Rain = 0
KKE1 150407Z 25004KT 05/03 A3014 RMK A01 T00510026  RH  084%=      5-min Rain = 0
KKE1 150408Z 25004KT 05/03 A3014 RMK A01 T00510026  RH  084%=      5-min Rain = 0
KKE1 150409Z 25005KT 05/03 A3014 RMK A01 T00510026  RH  084%=      5-min Rain = 0
KKE1 150410Z 25005KT 05/03 A3014 RMK A01 T00510026  RH  084%=      5-min Rain = 0
KKE1 150411Z 25005KT 05/03 A3014 RMK A01 T00510026  RH  084%=      5-min Rain = 0
KKE1 150412Z 25004KT 05/03 A3014 RMK A01 T00510027  RH  084%=      5-min Rain = 0
KKE1 150413Z 25004KT 05/03 A3014 RMK A01 T00520027  RH  084%=      5-min Rain = 0
KKE1 150414Z 25004KT 05/03 A3014 RMK A01 T00510026  RH  084%=      5-min Rain = 0
KKE1 150415Z 25003KT 05/03 A3014 RMK A01 T00510026  RH  084%=      5-min Rain = 0
KKE1 150416Z 26003KT 05/03 A3014 RMK A01 T00510026  RH  084%=      5-min Rain = 0
KKE1 150417Z 26001KT 05/03 A3014 RMK A01 T00500025  RH  084%=      5-min Rain = 0
KKE1 150418Z 27001KT 05/03 A3014 RMK A01 T00500025  RH  084%=      5-min Rain = 0
KKE1 150419Z 28001KT 05/03 A3014 RMK A01 T00490025  RH  084%=      5-min Rain = 0
KKE1 150420Z 29002KT 05/03 A3014 RMK A01 T00490025  RH  085%=      5-min Rain = 0
KKE1 150421Z 27002KT 05/03 A3014 RMK A01 T00480025  RH  085%=      5-min Rain = 0
KKE1 150422Z 26003KT 05/03 A3014 RMK A01 T00480025  RH  085%=      5-min Rain = 0
KKE1 150423Z 25003KT 05/03 A3014 RMK A01 T00480025  RH  085%=      5-min Rain = 0
KKE1 150424Z 25003KT 05/03 A3014 RMK A01 T00480025  RH  085%=      5-min Rain = 0
KKE1 150425Z 24003KT 05/03 A3014 RMK A01 T00490026  RH  085%=      5-min Rain = 0
KKE1 150426Z 24003KT 05/03 A3014 RMK A01 T00500026  RH  085%=      5-min Rain = 0
KKE1 150427Z 24004KT 05/03 A3014 RMK A01 T00500026  RH  084%=      5-min Rain = 0
KKE1 150428Z 23003KT 05/03 A3014 RMK A01 T00500026  RH  084%=      5-min Rain = 0
KKE1 150429Z 24003KT 05/03 A3014 RMK A01 T00500025  RH  084%=      5-min Rain = 0
KKE1 150430Z 25003KT 05/03 A3014 RMK A01 T00510026  RH  084%=      5-min Rain = 0
KKE1 150431Z 24003KT 05/03 A3014 RMK A01 T00510026  RH  084%=      5-min Rain = 0
KKE1 150432Z 24004KT 05/03 A3014 RMK A01 T00510026  RH  084%=      5-min Rain = 0
KKE1 150433Z 23004KT 05/03 A3014 RMK A01 T00510026  RH  084%=      5-min Rain = 0
KKE1 150434Z 24004KT 05/03 A3014 RMK A01 T00520026  RH  084%=      5-min Rain = 0
KKE1 150435Z 24004KT 05/03 A3014 RMK A01 T00520026  RH  083%=      5-min Rain = 0
KKE1 150436Z 23005KT 05/03 A3014 RMK A01 T00530026  RH  083%=      5-min Rain = 0
KKE1 150437Z 23005KT 05/03 A3013 RMK A01 T00520026  RH  083%=      5-min Rain = 0
KKE1 150438Z 23004KT 05/03 A3013 RMK A01 T00530026  RH  083%=      5-min Rain = 0
KKE1 150439Z 23005KT 05/03 A3013 RMK A01 T00530026  RH  083%=      5-min Rain = 0
KKE1 150440Z 23005KT 05/03 A3013 RMK A01 T00530026  RH  083%=      5-min Rain = 0
KKE1 150441Z 23006KT 05/03 A3013 RMK A01 T00540026  RH  082%=      5-min Rain = 0
KKE1 150442Z 23006KT 05/03 A3013 RMK A01 T00540026  RH  082%=      5-min Rain = 0
KKE1 150443Z 23005KT 06/03 A3013 RMK A01 T00550026  RH  082%=      5-min Rain = 0
KKE1 150444Z 24003KT 06/03 A3013 RMK A01 T00550026  RH  082%=      5-min Rain = 0
KKE1 150445Z 26002KT 05/02 A3013 RMK A01 T00530024  RH  082%=      5-min Rain = 0
KKE1 150446Z 26002KT 05/02 A3013 RMK A01 T00510024  RH  082%=      5-min Rain = 0
KKE1 150447Z 26002KT 05/02 A3013 RMK A01 T00510024  RH  083%=      5-min Rain = 0
KKE1 150448Z 24002KT 05/03 A3013 RMK A01 T00510025  RH  083%=      5-min Rain = 0
KKE1 150449Z 26002KT 05/02 A3013 RMK A01 T00500024  RH  083%=      5-min Rain = 0
KKE1 150450Z 25001KT 05/02 A3013 RMK A01 T00500024  RH  084%=      5-min Rain = 0
KKE1 150451Z 26002KT 05/02 A3013 RMK A01 T00490024  RH  084%=      5-min Rain = 0
KKE1 150452Z 26001KT 05/02 A3013 RMK A01 T00490024  RH  084%=      5-min Rain = 0
KKE1 150453Z 27001KT 05/02 A3013 RMK A01 T00490024  RH  084%=      5-min Rain = 0
KKE1 150454Z 28000KT 05/02 A3013 RMK A01 T00490024  RH  084%=      5-min Rain = 0
KKE1 150455Z 27001KT 05/02 A3013 RMK A01 T00490024  RH  084%=      5-min Rain = 0
KKE1 150456Z 26002KT 05/02 A3013 RMK A01 T00480024  RH  084%=      5-min Rain = 0
KKE1 150457Z 26002KT 05/02 A3013 RMK A01 T00480024  RH  084%=      5-min Rain = 0
KKE1 150458Z 25002KT 05/02 A3013 RMK A01 T00480024  RH  085%=      5-min Rain = 0
KKE1 150459Z 25003KT 05/03 A3013 RMK A01 T00480025  RH  085%=      5-min Rain = 0
KKE1 150500Z 25004KT 05/02 A3013 RMK A01 T00490024  RH  084%=      5-min Rain = 0
KKE1 150501Z 25004KT 05/03 A3013 RMK A01 T00500025  RH  084%=      5-min Rain = 0
KKE1 150502Z 25004KT 05/03 A3013 RMK A01 T00510026  RH  084%=      5-min Rain = 0
KKE1 150503Z 25005KT 05/03 A3013 RMK A01 T00520026  RH  083%=      5-min Rain = 0
KKE1 150504Z 25005KT 05/03 A3013 RMK A01 T00520025  RH  083%=      5-min Rain = 0
KKE1 150505Z 25005KT 05/03 A3013 RMK A01 T00520025  RH  083%=      5-min Rain = 0
KKE1 150506Z 25005KT 05/03 A3013 RMK A01 T00530026  RH  083%=      5-min Rain = 0
KKE1 150507Z 25005KT 05/03 A3013 RMK A01 T00520025  RH  083%=      5-min Rain = 0
KKE1 150508Z 25005KT 05/03 A3013 RMK A01 T00530026  RH  083%=      5-min Rain = 0
KKE1 150509Z 25005KT 05/03 A3013 RMK A01 T00530026  RH  083%=      5-min Rain = 0
KKE1 150510Z 24005KT 05/03 A3013 RMK A01 T00530026  RH  083%=      5-min Rain = 0
KKE1 150511Z 24005KT 05/03 A3013 RMK A01 T00530026  RH  083%=      5-min Rain = 0
KKE1 150512Z 24005KT 05/03 A3013 RMK A01 T00540026  RH  082%=      5-min Rain = 0
KKE1 150513Z 24004KT 05/03 A3013 RMK A01 T00540026  RH  082%=      5-min Rain = 0
KKE1 150514Z 23004KT 06/03 A3013 RMK A01 T00550026  RH  082%=      5-min Rain = 0
KKE1 150515Z 24003KT 06/03 A3013 RMK A01 T00550026  RH  082%=      5-min Rain = 0
KKE1 150516Z 24003KT 06/03 A3013 RMK A01 T00550026  RH  082%=      5-min Rain = 0
KKE1 150517Z 26002KT 06/03 A3013 RMK A01 T00550026  RH  082%=      5-min Rain = 0
KKE1 150518Z 25002KT 05/03 A3013 RMK A01 T00540025  RH  082%=      5-min Rain = 0
KKE1 150519Z 25003KT 05/03 A3013 RMK A01 T00540025  RH  082%=      5-min Rain = 0
KKE1 150520Z 25003KT 05/03 A3013 RMK A01 T00540026  RH  082%=      5-min Rain = 0
KKE1 150521Z 24004KT 05/03 A3013 RMK A01 T00540025  RH  082%=      5-min Rain = 0
KKE1 150522Z 24004KT 05/02 A3013 RMK A01 T00530024  RH  082%=      5-min Rain = 0
KKE1 150523Z 23003KT 05/03 A3013 RMK A01 T00520025  RH  082%=      5-min Rain = 0
KKE1 150524Z 23004KT 05/02 A3013 RMK A01 T00510024  RH  083%=      5-min Rain = 0
KKE1 150525Z 22003KT 05/02 A3013 RMK A01 T00500024  RH  083%=      5-min Rain = 0
KKE1 150526Z 24003KT 05/02 A3013 RMK A01 T00500024  RH  083%=      5-min Rain = 0
KKE1 150527Z 23004KT 05/02 A3013 RMK A01 T00490024  RH  084%=      5-min Rain = 0
KKE1 150528Z 23003KT 05/02 A3013 RMK A01 T00490024  RH  084%=      5-min Rain = 0
KKE1 150529Z 23003KT 05/02 A3013 RMK A01 T00500024  RH  083%=      5-min Rain = 0
KKE1 150530Z 23003KT 05/02 A3013 RMK A01 T00490023  RH  083%=      5-min Rain = 0
KKE1 150531Z 23003KT 05/02 A3013 RMK A01 T00480023  RH  084%=      5-min Rain = 0
KKE1 150532Z 23004KT 05/02 A3013 RMK A01 T00470023  RH  084%=      5-min Rain = 0
KKE1 150533Z 24003KT 05/02 A3013 RMK A01 T00470023  RH  084%=      5-min Rain = 0
KKE1 150534Z 24003KT 05/02 A3013 RMK A01 T00470024  RH  085%=      5-min Rain = 0
KKE1 150535Z 24003KT 05/02 A3013 RMK A01 T00480024  RH  085%=      5-min Rain = 0
KKE1 150536Z 24003KT 05/03 A3013 RMK A01 T00490025  RH  084%=      5-min Rain = 0
KKE1 150537Z 24002KT 05/02 A3013 RMK A01 T00490024  RH  084%=      5-min Rain = 0
KKE1 150538Z 25002KT 05/02 A3013 RMK A01 T00500024  RH  084%=      5-min Rain = 0
KKE1 150539Z 25002KT 05/02 A3013 RMK A01 T00490024  RH  084%=      5-min Rain = 0
KKE1 150540Z 25002KT 05/02 A3013 RMK A01 T00490024  RH  084%=      5-min Rain = 0
KKE1 150541Z 25002KT 05/02 A3013 RMK A01 T00490024  RH  084%=      5-min Rain = 0
KKE1 150542Z 25002KT 05/02 A3013 RMK A01 T00490024  RH  084%=      5-min Rain = 0
KKE1 150543Z 25003KT 05/02 A3013 RMK A01 T00490024  RH  084%=      5-min Rain = 0
KKE1 150544Z 24003KT 05/02 A3013 RMK A01 T00490024  RH  084%=      5-min Rain = 0
KKE1 150545Z 25003KT 05/02 A3013 RMK A01 T00490024  RH  084%=      5-min Rain = 0
KKE1 150546Z 26002KT 05/02 A3013 RMK A01 T00490024  RH  084%=      5-min Rain = 0
KKE1 150547Z 27001KT 05/02 A3013 RMK A01 T00490023  RH  084%=      5-min Rain = 0
KKE1 150548Z 29002KT 05/02 A3013 RMK A01 T00480022  RH  084%=      5-min Rain = 0
KKE1 150549Z 29002KT 05/02 A3013 RMK A01 T00470022  RH  084%=      5-min Rain = 0
KKE1 150550Z 31002KT 05/02 A3013 RMK A01 T00460022  RH  084%=      5-min Rain = 0
KKE1 150551Z 36001KT 05/02 A3013 RMK A01 T00450020  RH  084%=      5-min Rain = 0
KKE1 150552Z 00000KT 04/02 A3013 RMK A01 T00430018  RH  084%=      5-min Rain = 0
KKE1 150553Z 25001KT 04/02 A3013 RMK A01 T00420019  RH  085%=      5-min Rain = 0
KKE1 150554Z 28001KT 04/02 A3013 RMK A01 T00420022  RH  087%=      5-min Rain = 0
KKE1 150555Z 31001KT 04/02 A3013 RMK A01 T00430022  RH  087%=      5-min Rain = 0
KKE1 150556Z 30001KT 04/02 A3013 RMK A01 T00430022  RH  086%=      5-min Rain = 0
KKE1 150557Z 31002KT 04/02 A3013 RMK A01 T00430022  RH  086%=      5-min Rain = 0
KKE1 150558Z 32002KT 04/02 A3013 RMK A01 T00430021  RH  086%=      5-min Rain = 0
KKE1 150559Z 29002KT 04/02 A3013 RMK A01 T00430022  RH  086%=      5-min Rain = 0

Page generated in 0.1255 seconds.